Observation data for Mertzon on 04/16/2021      Previous  Date  Next       Current Mesonet Observations  Soil Data  Daily Summary Page  Observations in Plain Language
KME1 160500Z 12006KT 15/15 A2986 RMK A01 T01500150  RH  100%=      5-min Rain = 0
KME1 160501Z 12006KT 15/15 A2986 RMK A01 T01490150  RH  100%=      5-min Rain = 0
KME1 160502Z 13006KT 15/15 A2986 RMK A01 T01500150  RH  100%=      5-min Rain = 0
KME1 160503Z 12007KT 15/15 A2986 RMK A01 T01500150  RH  100%=      5-min Rain = 0
KME1 160504Z 12007KT 15/15 A2986 RMK A01 T01500150  RH  100%=      5-min Rain = 0
KME1 160505Z 12007KT 15/15 A2986 RMK A01 T01500150  RH  100%=      5-min Rain = 0
KME1 160506Z 12006KT 15/15 A2986 RMK A01 T01490150  RH  100%=      5-min Rain = 0
KME1 160507Z 12006KT 15/15 A2986 RMK A01 T01500150  RH  100%=      5-min Rain = 0
KME1 160508Z 11006KT 15/15 A2986 RMK A01 T01490149  RH  100%=      5-min Rain = 0
KME1 160509Z 12005KT 15/15 A2986 RMK A01 T01490150  RH  100%=      5-min Rain = 0
KME1 160510Z 12007KT 15/15 A2986 RMK A01 T01490149  RH  100%=      5-min Rain = 0
KME1 160511Z 12007KT 15/15 A2986 RMK A01 T01500150  RH  100%=      5-min Rain = 0
KME1 160512Z 12007KT 15/15 A2986 RMK A01 T01490149  RH  100%=      5-min Rain = 0
KME1 160513Z 11005KT 15/15 A2986 RMK A01 T01500150  RH  100%=      5-min Rain = 0
KME1 160514Z 12005KT 15/15 A2986 RMK A01 T01500150  RH  100%=      5-min Rain = 0
KME1 160515Z 12005KT 15/15 A2986 RMK A01 T01500150  RH  100%=      5-min Rain = 0
KME1 160516Z 12007KT 15/15 A2986 RMK A01 T01490150  RH  100%=      5-min Rain = 0
KME1 160517Z 12006KT 15/15 A2986 RMK A01 T01490150  RH  100%=      5-min Rain = 0
KME1 160518Z 12006KT 15/15 A2986 RMK A01 T01500150  RH  100%=      5-min Rain = 0
KME1 160519Z 12006KT 15/15 A2986 RMK A01 T01500150  RH  100%=      5-min Rain = 0
KME1 160520Z 13005KT 15/15 A2986 RMK A01 T01500150  RH  100%=      5-min Rain = 0
KME1 160521Z 12005KT 15/15 A2986 RMK A01 T01500150  RH  100%=      5-min Rain = 0
KME1 160522Z 12005KT 15/15 A2986 RMK A01 T01490150  RH  100%=      5-min Rain = 0
KME1 160523Z 11004KT 15/15 A2986 RMK A01 T01490150  RH  100%=      5-min Rain = 0
KME1 160524Z 12004KT 15/15 A2986 RMK A01 T01500150  RH  100%=      5-min Rain = 0
KME1 160525Z 12004KT 15/15 A2986 RMK A01 T01500150  RH  100%=      5-min Rain = 0
KME1 160526Z 12003KT 15/15 A2986 RMK A01 T01500150  RH  100%=      5-min Rain = 0
KME1 160527Z 12003KT 15/15 A2986 RMK A01 T01490150  RH  100%=      5-min Rain = 0
KME1 160528Z 11003KT 15/15 A2986 RMK A01 T01490150  RH  100%=      5-min Rain = 0
KME1 160529Z 12004KT 15/15 A2986 RMK A01 T01500150  RH  100%=      5-min Rain = 0
KME1 160530Z 11004KT 15/15 A2986 RMK A01 T01500150  RH  100%=      5-min Rain = 0
KME1 160531Z 12004KT 15/15 A2986 RMK A01 T01500150  RH  100%=      5-min Rain = 0
KME1 160532Z 11004KT 15/15 A2986 RMK A01 T01500150  RH  100%=      5-min Rain = 0
KME1 160533Z 11003KT 15/15 A2986 RMK A01 T01500150  RH  100%=      5-min Rain = 0
KME1 160534Z 11004KT 15/15 A2985 RMK A01 T01500150  RH  100%=      5-min Rain = 0
KME1 160535Z 11005KT 15/15 A2985 RMK A01 T01500150  RH  100%=      5-min Rain = 0
KME1 160536Z 10004KT 15/15 A2985 RMK A01 T01500150  RH  100%=      5-min Rain = 0
KME1 160537Z 11004KT 15/15 A2985 RMK A01 T01500150  RH  100%=      5-min Rain = 0
KME1 160538Z 11004KT 15/15 A2985 RMK A01 T01500150  RH  100%=      5-min Rain = 0
KME1 160539Z 10003KT 15/15 A2985 RMK A01 T01500150  RH  100%=      5-min Rain = 0
KME1 160540Z 11005KT 15/15 A2985 RMK A01 T01500150  RH  100%=      5-min Rain = 0
KME1 160541Z 11005KT 15/15 A2985 RMK A01 T01500150  RH  100%=      5-min Rain = 0
KME1 160542Z 11004KT 15/15 A2985 RMK A01 T01500150  RH  100%=      5-min Rain = 0
KME1 160543Z 10004KT 15/15 A2985 RMK A01 T01500150  RH  100%=      5-min Rain = 0
KME1 160544Z 11004KT 15/15 A2985 RMK A01 T01500150  RH  100%=      5-min Rain = 0
KME1 160545Z 12004KT 15/15 A2985 RMK A01 T01500150  RH  100%=      5-min Rain = 0
KME1 160546Z 13004KT 15/15 A2985 RMK A01 T01500150  RH  100%=      5-min Rain = 0
KME1 160547Z 12005KT 15/15 A2985 RMK A01 T01500150  RH  100%=      5-min Rain = 0
KME1 160548Z 12004KT 15/15 A2985 RMK A01 T01510151  RH  100%=      5-min Rain = 0
KME1 160549Z 13004KT 15/15 A2985 RMK A01 T01500150  RH  100%=      5-min Rain = 0
KME1 160550Z 13004KT 15/15 A2985 RMK A01 T01500151  RH  100%=      5-min Rain = 0
KME1 160551Z 12004KT 15/15 A2985 RMK A01 T01510151  RH  100%=      5-min Rain = 0
KME1 160552Z 13003KT 15/15 A2985 RMK A01 T01500150  RH  100%=      5-min Rain = 0
KME1 160553Z 14004KT 15/15 A2985 RMK A01 T01510151  RH  100%=      5-min Rain = 0
KME1 160554Z 14005KT 15/15 A2985 RMK A01 T01510151  RH  100%=      5-min Rain = 0
KME1 160555Z 13003KT 15/15 A2985 RMK A01 T01510151  RH  100%=      5-min Rain = 0
KME1 160556Z 12003KT 15/15 A2985 RMK A01 T01510151  RH  100%=      5-min Rain = 0
KME1 160557Z 12003KT 15/15 A2985 RMK A01 T01510151  RH  100%=      5-min Rain = 0
KME1 160558Z 12003KT 15/15 A2985 RMK A01 T01510151  RH  100%=      5-min Rain = 0
KME1 160559Z 11003KT 15/15 A2985 RMK A01 T01510151  RH  100%=      5-min Rain = 0
KME1 160600Z 12004KT 15/15 A2985 RMK A01 T01510151  RH  100%=      5-min Rain = 0
KME1 160601Z 11004KT 15/15 A2985 RMK A01 T01510151  RH  100%=      5-min Rain = 0
KME1 160602Z 12004KT 15/15 A2985 RMK A01 T01510151  RH  100%=      5-min Rain = 0
KME1 160603Z 11003KT 15/15 A2985 RMK A01 T01510151  RH  100%=      5-min Rain = 0
KME1 160604Z 11003KT 15/15 A2985 RMK A01 T01510151  RH  100%=      5-min Rain = 0
KME1 160605Z 11003KT 15/15 A2985 RMK A01 T01510151  RH  100%=      5-min Rain = 0
KME1 160606Z 11003KT 15/15 A2985 RMK A01 T01510151  RH  100%=      5-min Rain = 0
KME1 160607Z 12003KT 15/15 A2985 RMK A01 T01510151  RH  100%=      5-min Rain = 0
KME1 160608Z 12004KT 15/15 A2985 RMK A01 T01510151  RH  100%=      5-min Rain = 0
KME1 160609Z 11004KT 15/15 A2985 RMK A01 T01520152  RH  100%=      5-min Rain = 0
KME1 160610Z 13004KT 15/15 A2985 RMK A01 T01510152  RH  100%=      5-min Rain = 0
KME1 160611Z 11003KT 15/15 A2985 RMK A01 T01510151  RH  100%=      5-min Rain = 0
KME1 160612Z 11003KT 15/15 A2985 RMK A01 T01510151  RH  100%=      5-min Rain = 0
KME1 160613Z 12002KT 15/15 A2985 RMK A01 T01510151  RH  100%=      5-min Rain = 0
KME1 160614Z 11003KT 15/15 A2985 RMK A01 T01510151  RH  100%=      5-min Rain = 0
KME1 160615Z 10002KT 15/15 A2984 RMK A01 T01510151  RH  100%=      5-min Rain = 0
KME1 160616Z 11003KT 15/15 A2984 RMK A01 T01510151  RH  100%=      5-min Rain = 0
KME1 160617Z 11002KT 15/15 A2984 RMK A01 T01510151  RH  100%=      5-min Rain = 0
KME1 160618Z 11002KT 15/15 A2984 RMK A01 T01510151  RH  100%=      5-min Rain = 0
KME1 160619Z 13002KT 15/15 A2984 RMK A01 T01510151  RH  100%=      5-min Rain = 0
KME1 160620Z 12002KT 15/15 A2984 RMK A01 T01510151  RH  100%=      5-min Rain = 0
KME1 160621Z 12003KT 15/15 A2984 RMK A01 T01520152  RH  100%=      5-min Rain = 0
KME1 160622Z 12003KT 15/15 A2984 RMK A01 T01520152  RH  100%=      5-min Rain = 0
KME1 160623Z 12003KT 15/15 A2984 RMK A01 T01520152  RH  100%=      5-min Rain = 0
KME1 160624Z 12002KT 15/15 A2984 RMK A01 T01520152  RH  100%=      5-min Rain = 0
KME1 160625Z 11002KT 15/15 A2984 RMK A01 T01520152  RH  100%=      5-min Rain = 0
KME1 160626Z 11003KT 15/15 A2984 RMK A01 T01520152  RH  100%=      5-min Rain = 0
KME1 160627Z 11003KT 15/15 A2984 RMK A01 T01520152  RH  100%=      5-min Rain = 0
KME1 160628Z 11003KT 15/15 A2984 RMK A01 T01520152  RH  100%=      5-min Rain = 0
KME1 160629Z 12002KT 15/15 A2984 RMK A01 T01520152  RH  100%=      5-min Rain = 0
KME1 160630Z 12003KT 15/15 A2984 RMK A01 T01520152  RH  100%=      5-min Rain = 0
KME1 160631Z 12003KT 15/15 A2984 RMK A01 T01520152  RH  100%=      5-min Rain = 0
KME1 160632Z 11003KT 15/15 A2984 RMK A01 T01520152  RH  100%=      5-min Rain = 0
KME1 160633Z 11003KT 15/15 A2984 RMK A01 T01520152  RH  100%=      5-min Rain = 0
KME1 160634Z 12003KT 15/15 A2984 RMK A01 T01520152  RH  100%=      5-min Rain = 0
KME1 160635Z 11002KT 15/15 A2984 RMK A01 T01520152  RH  100%=      5-min Rain = 0
KME1 160636Z 12002KT 15/15 A2984 RMK A01 T01520152  RH  100%=      5-min Rain = 0
KME1 160637Z 11002KT 15/15 A2984 RMK A01 T01520152  RH  100%=      5-min Rain = 0
KME1 160638Z 10002KT 15/15 A2984 RMK A01 T01520152  RH  100%=      5-min Rain = 0
KME1 160639Z 09002KT 15/15 A2984 RMK A01 T01520152  RH  100%=      5-min Rain = 0
KME1 160640Z 10001KT 15/15 A2984 RMK A01 T01520152  RH  100%=      5-min Rain = 0
KME1 160641Z 10002KT 15/15 A2984 RMK A01 T01520152  RH  100%=      5-min Rain = 0
KME1 160642Z 10002KT 15/15 A2984 RMK A01 T01520152  RH  100%=      5-min Rain = 0
KME1 160643Z 10001KT 15/15 A2984 RMK A01 T01520152  RH  100%=      5-min Rain = 0
KME1 160644Z 09002KT 15/15 A2984 RMK A01 T01520152  RH  100%=      5-min Rain = 0
KME1 160645Z 09002KT 15/15 A2984 RMK A01 T01520152  RH  100%=      5-min Rain = 0
KME1 160646Z 10003KT 15/15 A2984 RMK A01 T01520152  RH  100%=      5-min Rain = 0
KME1 160647Z 09003KT 15/15 A2984 RMK A01 T01530153  RH  100%=      5-min Rain = 0
KME1 160648Z 10002KT 15/15 A2984 RMK A01 T01530153  RH  100%=      5-min Rain = 0
KME1 160649Z 09002KT 15/15 A2984 RMK A01 T01530153  RH  100%=      5-min Rain = 0
KME1 160650Z 09001KT 15/15 A2984 RMK A01 T01530153  RH  100%=      5-min Rain = 0
KME1 160651Z 10001KT 15/15 A2984 RMK A01 T01530153  RH  100%=      5-min Rain = 0
KME1 160652Z 10001KT 15/15 A2984 RMK A01 T01530153  RH  100%=      5-min Rain = 0
KME1 160653Z 09002KT 15/15 A2984 RMK A01 T01530153  RH  100%=      5-min Rain = 0
KME1 160654Z 10002KT 15/15 A2984 RMK A01 T01530153  RH  100%=      5-min Rain = 0
KME1 160655Z 09001KT 15/15 A2984 RMK A01 T01530153  RH  100%=      5-min Rain = 0
KME1 160656Z 09001KT 15/15 A2984 RMK A01 T01530153  RH  100%=      5-min Rain = 0
KME1 160657Z 10001KT 15/15 A2984 RMK A01 T01530153  RH  100%=      5-min Rain = 0
KME1 160658Z 10002KT 15/15 A2984 RMK A01 T01530153  RH  100%=      5-min Rain = 0
KME1 160659Z 10002KT 15/15 A2984 RMK A01 T01530153  RH  100%=      5-min Rain = 0
KME1 160700Z 09002KT 15/15 A2984 RMK A01 T01530153  RH  100%=      5-min Rain = 0
KME1 160701Z 09002KT 15/15 A2984 RMK A01 T01530153  RH  100%=      5-min Rain = 0
KME1 160702Z 09002KT 15/15 A2984 RMK A01 T01530153  RH  100%=      5-min Rain = 0
KME1 160703Z 10002KT 15/15 A2984 RMK A01 T01530153  RH  100%=      5-min Rain = 0
KME1 160704Z 09001KT 15/15 A2984 RMK A01 T01530153  RH  100%=      5-min Rain = 0
KME1 160705Z 10001KT 15/15 A2984 RMK A01 T01530153  RH  100%=      5-min Rain = 0
KME1 160706Z 09001KT 15/15 A2984 RMK A01 T01530153  RH  100%=      5-min Rain = 0
KME1 160707Z 08001KT 15/15 A2984 RMK A01 T01530153  RH  100%=      5-min Rain = 0
KME1 160708Z 09002KT 15/15 A2984 RMK A01 T01530153  RH  100%=      5-min Rain = 0
KME1 160709Z 09001KT 15/15 A2984 RMK A01 T01530153  RH  100%=      5-min Rain = 0
KME1 160710Z 08001KT 15/15 A2984 RMK A01 T01530153  RH  100%=      5-min Rain = 0
KME1 160711Z 09001KT 15/15 A2984 RMK A01 T01520153  RH  100%=      5-min Rain = 0
KME1 160712Z 09001KT 15/15 A2984 RMK A01 T01530153  RH  100%=      5-min Rain = 0
KME1 160713Z 09001KT 15/15 A2984 RMK A01 T01530153  RH  100%=      5-min Rain = 0
KME1 160714Z 10001KT 15/15 A2984 RMK A01 T01530153  RH  100%=      5-min Rain = 0
KME1 160715Z 10002KT 15/15 A2984 RMK A01 T01530153  RH  100%=      5-min Rain = 0
KME1 160716Z 09002KT 15/15 A2984 RMK A01 T01530153  RH  100%=      5-min Rain = 0
KME1 160717Z 10002KT 15/15 A2984 RMK A01 T01530153  RH  100%=      5-min Rain = 0
KME1 160718Z 11002KT 15/15 A2984 RMK A01 T01530153  RH  100%=      5-min Rain = 0
KME1 160719Z 11002KT 15/15 A2983 RMK A01 T01530153  RH  100%=      5-min Rain = 0
KME1 160720Z 11002KT 15/15 A2983 RMK A01 T01530153  RH  100%=      5-min Rain = 0
KME1 160721Z 11002KT 15/15 A2983 RMK A01 T01530153  RH  100%=      5-min Rain = 0
KME1 160722Z 12001KT 15/15 A2983 RMK A01 T01530153  RH  100%=      5-min Rain = 0
KME1 160723Z 11001KT 15/15 A2984 RMK A01 T01530153  RH  100%=      5-min Rain = 0
KME1 160724Z 13001KT 15/15 A2984 RMK A01 T01530154  RH  100%=      5-min Rain = 0
KME1 160725Z 12002KT 15/15 A2984 RMK A01 T01540154  RH  100%=      5-min Rain = 0
KME1 160726Z 11001KT 15/15 A2984 RMK A01 T01540154  RH  100%=      5-min Rain = 0
KME1 160727Z 11002KT 15/15 A2983 RMK A01 T01530153  RH  100%=      5-min Rain = 0
KME1 160728Z 10002KT 15/15 A2983 RMK A01 T01540154  RH  100%=      5-min Rain = 0
KME1 160729Z 11002KT 15/15 A2983 RMK A01 T01540154  RH  100%=      5-min Rain = 0
KME1 160730Z 11002KT 15/15 A2983 RMK A01 T01530154  RH  100%=      5-min Rain = 0
KME1 160731Z 11002KT 15/15 A2983 RMK A01 T01540154  RH  100%=      5-min Rain = 0
KME1 160732Z 12002KT 15/15 A2983 RMK A01 T01540154  RH  100%=      5-min Rain = 0
KME1 160733Z 12002KT 15/15 A2983 RMK A01 T01540154  RH  100%=      5-min Rain = 0
KME1 160734Z 11002KT 15/15 A2983 RMK A01 T01540154  RH  100%=      5-min Rain = 0
KME1 160735Z 11002KT 15/15 A2983 RMK A01 T01540154  RH  100%=      5-min Rain = 0
KME1 160736Z 11002KT 15/15 A2983 RMK A01 T01540154  RH  100%=      5-min Rain = 0
KME1 160737Z 11002KT 15/15 A2983 RMK A01 T01540154  RH  100%=      5-min Rain = 0
KME1 160738Z 11002KT 15/15 A2983 RMK A01 T01540154  RH  100%=      5-min Rain = 0
KME1 160739Z 11001KT 15/15 A2983 RMK A01 T01540154  RH  100%=      5-min Rain = 0
KME1 160740Z 10002KT 15/15 A2983 RMK A01 T01540154  RH  100%=      5-min Rain = 0
KME1 160741Z 10002KT 15/15 A2983 RMK A01 T01540154  RH  100%=      5-min Rain = 0
KME1 160742Z 10002KT 15/15 A2983 RMK A01 T01540154  RH  100%=      5-min Rain = 0
KME1 160743Z 10002KT 15/15 A2983 RMK A01 T01540154  RH  100%=      5-min Rain = 0
KME1 160744Z 09002KT 15/15 A2983 RMK A01 T01540154  RH  100%=      5-min Rain = 0
KME1 160745Z 08002KT 15/15 A2983 RMK A01 T01540154  RH  100%=      5-min Rain = 0
KME1 160746Z 08002KT 15/15 A2983 RMK A01 T01540154  RH  100%=      5-min Rain = 0
KME1 160747Z 07002KT 15/15 A2983 RMK A01 T01540154  RH  100%=      5-min Rain = 0
KME1 160748Z 07002KT 15/15 A2983 RMK A01 T01540154  RH  100%=      5-min Rain = 0
KME1 160749Z 06002KT 15/15 A2983 RMK A01 T01540154  RH  100%=      5-min Rain = 0
KME1 160750Z 05002KT 15/15 A2983 RMK A01 T01540154  RH  100%=      5-min Rain = 0
KME1 160751Z 05003KT 15/15 A2983 RMK A01 T01540154  RH  100%=      5-min Rain = 0
KME1 160752Z 05003KT 15/16 A2983 RMK A01 T01540155  RH  100%=      5-min Rain = 0
KME1 160753Z 04002KT 15/16 A2983 RMK A01 T01540155  RH  100%=      5-min Rain = 0
KME1 160754Z 04003KT 15/15 A2983 RMK A01 T01540154  RH  100%=      5-min Rain = 0
KME1 160755Z 04003KT 15/16 A2983 RMK A01 T01540155  RH  100%=      5-min Rain = 0
KME1 160756Z 03003KT 16/16 A2983 RMK A01 T01550155  RH  100%=      5-min Rain = 0
KME1 160757Z 03003KT 16/16 A2983 RMK A01 T01550155  RH  100%=      5-min Rain = 0
KME1 160758Z 03003KT 16/16 A2983 RMK A01 T01550155  RH  100%=      5-min Rain = 0
KME1 160759Z 03003KT 16/16 A2983 RMK A01 T01550155  RH  100%=      5-min Rain = 0
KME1 160800Z 03003KT 16/16 A2983 RMK A01 T01550155  RH  100%=      5-min Rain = 0
KME1 160801Z 03003KT 16/16 A2983 RMK A01 T01550155  RH  100%=      5-min Rain = 0
KME1 160802Z 02003KT 16/16 A2983 RMK A01 T01550155  RH  100%=      5-min Rain = 0
KME1 160803Z 02003KT 15/16 A2983 RMK A01 T01540155  RH  100%=      5-min Rain = 0
KME1 160804Z 02003KT 16/16 A2983 RMK A01 T01550155  RH  100%=      5-min Rain = 0
KME1 160805Z 01003KT 15/16 A2983 RMK A01 T01540155  RH  100%=      5-min Rain = 0
KME1 160806Z 01003KT 15/16 A2983 RMK A01 T01540155  RH  100%=      5-min Rain = 0
KME1 160807Z 01003KT 15/16 A2983 RMK A01 T01540155  RH  100%=      5-min Rain = 0
KME1 160808Z 01003KT 16/16 A2983 RMK A01 T01550155  RH  100%=      5-min Rain = 0
KME1 160809Z 01003KT 16/16 A2983 RMK A01 T01550155  RH  100%=      5-min Rain = 0
KME1 160810Z 01003KT 16/16 A2983 RMK A01 T01550155  RH  100%=      5-min Rain = 0
KME1 160811Z 00003KT 16/16 A2983 RMK A01 T01550155  RH  100%=      5-min Rain = 0
KME1 160812Z 36004KT 16/16 A2984 RMK A01 T01550155  RH  100%=      5-min Rain = 0
KME1 160813Z 36004KT 15/16 A2984 RMK A01 T01540155  RH  100%=      5-min Rain = 0
KME1 160814Z 35005KT 16/16 A2984 RMK A01 T01550155  RH  100%=      5-min Rain = 0
KME1 160815Z 36005KT 15/15 A2984 RMK A01 T01540154  RH  100%=      5-min Rain = 0
KME1 160816Z 35005KT 16/16 A2984 RMK A01 T01550155  RH  100%=      5-min Rain = 0.01
KME1 160817Z 35005KT 15/15 A2984 RMK A01 T01540154  RH  100%=      5-min Rain = 0
KME1 160818Z 35005KT 16/16 A2984 RMK A01 T01550155  RH  100%=      5-min Rain = 0
KME1 160819Z 35005KT 16/16 A2984 RMK A01 T01550155  RH  100%=      5-min Rain = 0
KME1 160820Z 34006KT 16/16 A2984 RMK A01 T01550155  RH  100%=      5-min Rain = 0
KME1 160821Z 34006KT 15/16 A2984 RMK A01 T01540155  RH  100%=      5-min Rain = 0
KME1 160822Z 34006KT 16/16 A2985 RMK A01 T01550155  RH  100%=      5-min Rain = 0
KME1 160823Z 35006KT 16/16 A2985 RMK A01 T01550155  RH  100%=      5-min Rain = 0
KME1 160824Z 35005KT 15/15 A2985 RMK A01 T01540154  RH  100%=      5-min Rain = 0
KME1 160825Z 33004KT 15/15 A2985 RMK A01 T01540154  RH  100%=      5-min Rain = 0
KME1 160826Z 33004KT 15/15 A2985 RMK A01 T01540154  RH  100%=      5-min Rain = 0
KME1 160827Z 35003KT 15/15 A2985 RMK A01 T01540154  RH  100%=      5-min Rain = 0
KME1 160828Z 00003KT 15/15 A2985 RMK A01 T01540154  RH  100%=      5-min Rain = 0
KME1 160829Z 35003KT 15/15 A2985 RMK A01 T01540154  RH  100%=      5-min Rain = 0
KME1 160830Z 00002KT 15/15 A2984 RMK A01 T01540154  RH  100%=      5-min Rain = 0
KME1 160831Z 01002KT 15/15 A2984 RMK A01 T01540154  RH  100%=      5-min Rain = 0
KME1 160832Z 01001KT 15/15 A2984 RMK A01 T01540154  RH  100%=      5-min Rain = 0
KME1 160833Z 02001KT 15/15 A2984 RMK A01 T01540154  RH  100%=      5-min Rain = 0
KME1 160834Z 05001KT 15/15 A2984 RMK A01 T01540154  RH  100%=      5-min Rain = 0
KME1 160835Z 07002KT 15/15 A2984 RMK A01 T01530154  RH  100%=      5-min Rain = 0
KME1 160836Z 07002KT 15/15 A2984 RMK A01 T01540154  RH  100%=      5-min Rain = 0
KME1 160837Z 09001KT 15/15 A2984 RMK A01 T01540154  RH  100%=      5-min Rain = 0
KME1 160838Z 12002KT 15/15 A2984 RMK A01 T01540154  RH  100%=      5-min Rain = 0
KME1 160839Z 12002KT 15/15 A2984 RMK A01 T01530154  RH  100%=      5-min Rain = 0
KME1 160840Z 12003KT 15/15 A2983 RMK A01 T01540154  RH  100%=      5-min Rain = 0
KME1 160841Z 12003KT 15/15 A2983 RMK A01 T01540154  RH  100%=      5-min Rain = 0
KME1 160842Z 12003KT 15/15 A2983 RMK A01 T01540154  RH  100%=      5-min Rain = 0
KME1 160843Z 12003KT 15/15 A2983 RMK A01 T01540154  RH  100%=      5-min Rain = 0
KME1 160844Z 12003KT 15/15 A2983 RMK A01 T01530154  RH  100%=      5-min Rain = 0
KME1 160845Z 13003KT 15/15 A2983 RMK A01 T01530154  RH  100%=      5-min Rain = 0
KME1 160846Z 13003KT 15/15 A2983 RMK A01 T01540154  RH  100%=      5-min Rain = 0
KME1 160847Z 13004KT 15/15 A2983 RMK A01 T01540154  RH  100%=      5-min Rain = 0
KME1 160848Z 12003KT 15/15 A2982 RMK A01 T01540154  RH  100%=      5-min Rain = 0
KME1 160849Z 12003KT 15/15 A2982 RMK A01 T01540154  RH  100%=      5-min Rain = 0
KME1 160850Z 11002KT 15/15 A2982 RMK A01 T01540154  RH  100%=      5-min Rain = 0
KME1 160851Z 11002KT 15/15 A2982 RMK A01 T01540154  RH  100%=      5-min Rain = 0
KME1 160852Z 12002KT 15/15 A2982 RMK A01 T01540154  RH  100%=      5-min Rain = 0
KME1 160853Z 12003KT 15/15 A2982 RMK A01 T01530154  RH  100%=      5-min Rain = 0
KME1 160854Z 11003KT 15/15 A2982 RMK A01 T01540154  RH  100%=      5-min Rain = 0
KME1 160855Z 11002KT 15/15 A2982 RMK A01 T01540154  RH  100%=      5-min Rain = 0
KME1 160856Z 11002KT 15/15 A2982 RMK A01 T01540154  RH  100%=      5-min Rain = 0
KME1 160857Z 11002KT 15/15 A2982 RMK A01 T01540154  RH  100%=      5-min Rain = 0
KME1 160858Z 11002KT 15/15 A2982 RMK A01 T01530154  RH  100%=      5-min Rain = 0
KME1 160859Z 11002KT 15/15 A2982 RMK A01 T01530154  RH  100%=      5-min Rain = 0
KME1 160900Z 11003KT 15/15 A2982 RMK A01 T01540154  RH  100%=      5-min Rain = 0
KME1 160901Z 12002KT 15/15 A2982 RMK A01 T01540154  RH  100%=      5-min Rain = 0
KME1 160902Z 11003KT 15/15 A2982 RMK A01 T01540154  RH  100%=      5-min Rain = 0
KME1 160903Z 11003KT 15/15 A2982 RMK A01 T01540154  RH  100%=      5-min Rain = 0.01
KME1 160904Z 11003KT 15/15 A2982 RMK A01 T01540154  RH  100%=      5-min Rain = 0
KME1 160905Z 11004KT 15/15 A2982 RMK A01 T01540154  RH  100%=      5-min Rain = 0
KME1 160906Z 11003KT 15/15 A2982 RMK A01 T01540154  RH  100%=      5-min Rain = 0
KME1 160907Z 11004KT 15/15 A2982 RMK A01 T01540154  RH  100%=      5-min Rain = 0
KME1 160908Z 11003KT 15/15 A2982 RMK A01 T01530154  RH  100%=      5-min Rain = 0
KME1 160909Z 11003KT 15/15 A2982 RMK A01 T01540154  RH  100%=      5-min Rain = 0
KME1 160910Z 11003KT 15/15 A2982 RMK A01 T01540154  RH  100%=      5-min Rain = 0
KME1 160911Z 12003KT 15/15 A2982 RMK A01 T01540154  RH  100%=      5-min Rain = 0
KME1 160912Z 11003KT 15/15 A2982 RMK A01 T01530154  RH  100%=      5-min Rain = 0
KME1 160913Z 11003KT 15/15 A2982 RMK A01 T01540154  RH  100%=      5-min Rain = 0
KME1 160914Z 11004KT 15/15 A2982 RMK A01 T01540154  RH  100%=      5-min Rain = 0
KME1 160915Z 10004KT 15/15 A2982 RMK A01 T01530154  RH  100%=      5-min Rain = 0
KME1 160916Z 10003KT 15/15 A2982 RMK A01 T01540154  RH  100%=      5-min Rain = 0
KME1 160917Z 09002KT 15/15 A2982 RMK A01 T01540154  RH  100%=      5-min Rain = 0
KME1 160918Z 10003KT 15/15 A2982 RMK A01 T01540154  RH  100%=      5-min Rain = 0
KME1 160919Z 10003KT 15/15 A2981 RMK A01 T01540154  RH  100%=      5-min Rain = 0
KME1 160920Z 11002KT 15/15 A2982 RMK A01 T01540154  RH  100%=      5-min Rain = 0
KME1 160921Z 12002KT 15/15 A2982 RMK A01 T01540154  RH  100%=      5-min Rain = 0
KME1 160922Z 12003KT 15/15 A2982 RMK A01 T01540154  RH  100%=      5-min Rain = 0
KME1 160923Z 11002KT 15/15 A2982 RMK A01 T01540154  RH  100%=      5-min Rain = 0
KME1 160924Z 11003KT 15/15 A2982 RMK A01 T01540154  RH  100%=      5-min Rain = 0
KME1 160925Z 11003KT 15/15 A2981 RMK A01 T01540154  RH  100%=      5-min Rain = 0
KME1 160926Z 11003KT 15/15 A2981 RMK A01 T01540154  RH  100%=      5-min Rain = 0
KME1 160927Z 11003KT 15/15 A2981 RMK A01 T01540154  RH  100%=      5-min Rain = 0
KME1 160928Z 12003KT 15/15 A2981 RMK A01 T01540154  RH  100%=      5-min Rain = 0
KME1 160929Z 12003KT 15/15 A2981 RMK A01 T01540154  RH  100%=      5-min Rain = 0
KME1 160930Z 11003KT 15/15 A2981 RMK A01 T01540154  RH  100%=      5-min Rain = 0
KME1 160931Z 11003KT 15/15 A2981 RMK A01 T01540154  RH  100%=      5-min Rain = 0
KME1 160932Z 11003KT 15/15 A2981 RMK A01 T01540154  RH  100%=      5-min Rain = 0
KME1 160933Z 11003KT 15/15 A2981 RMK A01 T01540154  RH  100%=      5-min Rain = 0
KME1 160934Z 12003KT 15/15 A2981 RMK A01 T01540154  RH  100%=      5-min Rain = 0
KME1 160935Z 11003KT 15/15 A2981 RMK A01 T01540154  RH  100%=      5-min Rain = 0
KME1 160936Z 10003KT 15/15 A2981 RMK A01 T01540154  RH  100%=      5-min Rain = 0
KME1 160937Z 11003KT 15/16 A2981 RMK A01 T01540155  RH  100%=      5-min Rain = 0
KME1 160938Z 10003KT 16/16 A2981 RMK A01 T01550155  RH  100%=      5-min Rain = 0
KME1 160939Z 10003KT 16/16 A2981 RMK A01 T01550155  RH  100%=      5-min Rain = 0
KME1 160940Z 10003KT 15/16 A298 RMK A01 T01540155  RH  100%=      5-min Rain = 0
KME1 160941Z 11003KT 16/16 A298 RMK A01 T01550155  RH  100%=      5-min Rain = 0
KME1 160942Z 10003KT 15/16 A298 RMK A01 T01540155  RH  100%=      5-min Rain = 0
KME1 160943Z 10003KT 16/16 A298 RMK A01 T01550155  RH  100%=      5-min Rain = 0
KME1 160944Z 10004KT 16/16 A298 RMK A01 T01550155  RH  100%=      5-min Rain = 0
KME1 160945Z 10003KT 16/16 A298 RMK A01 T01550155  RH  100%=      5-min Rain = 0
KME1 160946Z 09003KT 16/16 A298 RMK A01 T01550155  RH  100%=      5-min Rain = 0
KME1 160947Z 10003KT 16/16 A298 RMK A01 T01550155  RH  100%=      5-min Rain = 0
KME1 160948Z 10003KT 16/16 A298 RMK A01 T01550155  RH  100%=      5-min Rain = 0
KME1 160949Z 09004KT 16/16 A298 RMK A01 T01550155  RH  100%=      5-min Rain = 0
KME1 160950Z 09004KT 16/16 A298 RMK A01 T01550156  RH  100%=      5-min Rain = 0
KME1 160951Z 09003KT 16/16 A298 RMK A01 T01550156  RH  100%=      5-min Rain = 0
KME1 160952Z 09003KT 16/16 A298 RMK A01 T01560156  RH  100%=      5-min Rain = 0
KME1 160953Z 10003KT 16/16 A298 RMK A01 T01550156  RH  100%=      5-min Rain = 0
KME1 160954Z 10004KT 16/16 A298 RMK A01 T01550155  RH  100%=      5-min Rain = 0
KME1 160955Z 10003KT 16/16 A298 RMK A01 T01560156  RH  100%=      5-min Rain = 0
KME1 160956Z 10003KT 16/16 A298 RMK A01 T01560156  RH  100%=      5-min Rain = 0
KME1 160957Z 10003KT 16/16 A298 RMK A01 T01560156  RH  100%=      5-min Rain = 0
KME1 160958Z 09003KT 16/16 A298 RMK A01 T01560156  RH  100%=      5-min Rain = 0
KME1 160959Z 10003KT 16/16 A298 RMK A01 T01560156  RH  100%=      5-min Rain = 0
KME1 161000Z 09003KT 16/16 A298 RMK A01 T01560156  RH  100%=      5-min Rain = 0
KME1 161001Z 09002KT 16/16 A298 RMK A01 T01560156  RH  100%=      5-min Rain = 0
KME1 161002Z 09003KT 16/16 A298 RMK A01 T01560156  RH  100%=      5-min Rain = 0
KME1 161003Z 10002KT 16/16 A298 RMK A01 T01560157  RH  100%=      5-min Rain = 0
KME1 161004Z 09003KT 16/16 A298 RMK A01 T01560156  RH  100%=      5-min Rain = 0
KME1 161005Z 09002KT 16/16 A298 RMK A01 T01560156  RH  100%=      5-min Rain = 0
KME1 161006Z 09002KT 16/16 A298 RMK A01 T01570157  RH  100%=      5-min Rain = 0
KME1 161007Z 10002KT 16/16 A298 RMK A01 T01570157  RH  100%=      5-min Rain = 0
KME1 161008Z 11002KT 16/16 A298 RMK A01 T01570157  RH  100%=      5-min Rain = 0
KME1 161009Z 10002KT 16/16 A298 RMK A01 T01570157  RH  100%=      5-min Rain = 0
KME1 161010Z 11002KT 16/16 A298 RMK A01 T01570157  RH  100%=      5-min Rain = 0
KME1 161011Z 11002KT 16/16 A298 RMK A01 T01570157  RH  100%=      5-min Rain = 0
KME1 161012Z 11002KT 16/16 A298 RMK A01 T01570157  RH  100%=      5-min Rain = 0
KME1 161013Z 13002KT 16/16 A298 RMK A01 T01570157  RH  100%=      5-min Rain = 0
KME1 161014Z 11002KT 16/16 A298 RMK A01 T01570157  RH  100%=      5-min Rain = 0
KME1 161015Z 12001KT 16/16 A298 RMK A01 T01570157  RH  100%=      5-min Rain = 0
KME1 161016Z 11001KT 16/16 A298 RMK A01 T01570158  RH  100%=      5-min Rain = 0
KME1 161017Z 12001KT 16/16 A298 RMK A01 T01570158  RH  100%=      5-min Rain = 0
KME1 161018Z 13001KT 16/16 A298 RMK A01 T01580158  RH  100%=      5-min Rain = 0
KME1 161019Z 14001KT 16/16 A298 RMK A01 T01580158  RH  100%=      5-min Rain = 0
KME1 161020Z 13001KT 16/16 A298 RMK A01 T01580158  RH  100%=      5-min Rain = 0
KME1 161021Z 13001KT 16/16 A298 RMK A01 T01580158  RH  100%=      5-min Rain = 0
KME1 161022Z 13002KT 16/16 A298 RMK A01 T01580158  RH  100%=      5-min Rain = 0
KME1 161023Z 13002KT 16/16 A298 RMK A01 T01590159  RH  100%=      5-min Rain = 0
KME1 161024Z 11001KT 16/16 A298 RMK A01 T01590159  RH  100%=      5-min Rain = 0
KME1 161025Z 09001KT 16/16 A298 RMK A01 T01590159  RH  100%=      5-min Rain = 0
KME1 161026Z 07001KT 16/16 A298 RMK A01 T01590159  RH  100%=      5-min Rain = 0
KME1 161027Z 06001KT 16/16 A298 RMK A01 T01590159  RH  100%=      5-min Rain = 0
KME1 161028Z 06001KT 16/16 A298 RMK A01 T01590159  RH  100%=      5-min Rain = 0
KME1 161029Z 06001KT 16/16 A298 RMK A01 T01590159  RH  100%=      5-min Rain = 0
KME1 161030Z 05001KT 16/16 A298 RMK A01 T01590159  RH  100%=      5-min Rain = 0
KME1 161031Z 06001KT 16/16 A298 RMK A01 T01590159  RH  100%=      5-min Rain = 0
KME1 161032Z 04001KT 16/16 A298 RMK A01 T01590159  RH  100%=      5-min Rain = 0
KME1 161033Z 03001KT 16/16 A298 RMK A01 T01590159  RH  100%=      5-min Rain = 0
KME1 161034Z 03002KT 16/16 A298 RMK A01 T01580159  RH  100%=      5-min Rain = 0
KME1 161035Z 03002KT 16/16 A298 RMK A01 T01580158  RH  100%=      5-min Rain = 0
KME1 161036Z 03002KT 16/16 A298 RMK A01 T01580158  RH  100%=      5-min Rain = 0
KME1 161037Z 03002KT 16/16 A298 RMK A01 T01580158  RH  100%=      5-min Rain = 0
KME1 161038Z 03002KT 16/16 A298 RMK A01 T01580158  RH  100%=      5-min Rain = 0
KME1 161039Z 04002KT 16/16 A298 RMK A01 T01580158  RH  100%=      5-min Rain = 0
KME1 161040Z 04002KT 16/16 A298 RMK A01 T01580158  RH  100%=      5-min Rain = 0
KME1 161041Z 04002KT 16/16 A298 RMK A01 T01580158  RH  100%=      5-min Rain = 0
KME1 161042Z 04002KT 16/16 A298 RMK A01 T01580158  RH  100%=      5-min Rain = 0
KME1 161043Z 03003KT 16/16 A298 RMK A01 T01580158  RH  100%=      5-min Rain = 0
KME1 161044Z 03003KT 16/16 A298 RMK A01 T01560156  RH  100%=      5-min Rain = 0
KME1 161045Z 04003KT 16/16 A298 RMK A01 T01550156  RH  100%=      5-min Rain = 0
KME1 161046Z 04002KT 16/16 A298 RMK A01 T01550155  RH  100%=      5-min Rain = 0
KME1 161047Z 05003KT 16/16 A298 RMK A01 T01550155  RH  100%=      5-min Rain = 0
KME1 161048Z 04003KT 16/16 A298 RMK A01 T01550155  RH  100%=      5-min Rain = 0
KME1 161049Z 05003KT 15/15 A298 RMK A01 T01540154  RH  100%=      5-min Rain = 0
KME1 161050Z 05002KT 15/15 A298 RMK A01 T01540154  RH  100%=      5-min Rain = 0
KME1 161051Z 06002KT 15/15 A298 RMK A01 T01540154  RH  100%=      5-min Rain = 0
KME1 161052Z 06002KT 15/15 A298 RMK A01 T01540154  RH  100%=      5-min Rain = 0
KME1 161053Z 06001KT 15/15 A298 RMK A01 T01540154  RH  100%=      5-min Rain = 0
KME1 161054Z 06001KT 15/15 A298 RMK A01 T01540154  RH  100%=      5-min Rain = 0
KME1 161055Z 05001KT 15/15 A298 RMK A01 T01540154  RH  100%=      5-min Rain = 0
KME1 161056Z 05002KT 15/15 A298 RMK A01 T01530154  RH  100%=      5-min Rain = 0
KME1 161057Z 06002KT 15/15 A298 RMK A01 T01540154  RH  100%=      5-min Rain = 0
KME1 161058Z 05002KT 15/15 A298 RMK A01 T01540154  RH  100%=      5-min Rain = 0
KME1 161059Z 05003KT 15/15 A298 RMK A01 T01540154  RH  100%=      5-min Rain = 0
KME1 161100Z 06003KT 15/15 A298 RMK A01 T01540154  RH  100%=      5-min Rain = 0
KME1 161101Z 04002KT 15/15 A298 RMK A01 T01540154  RH  100%=      5-min Rain = 0
KME1 161102Z 05002KT 15/15 A298 RMK A01 T01540154  RH  100%=      5-min Rain = 0
KME1 161103Z 04002KT 15/15 A298 RMK A01 T01540154  RH  100%=      5-min Rain = 0
KME1 161104Z 05003KT 15/15 A298 RMK A01 T01540154  RH  100%=      5-min Rain = 0
KME1 161105Z 05002KT 15/15 A298 RMK A01 T01540154  RH  100%=      5-min Rain = 0
KME1 161106Z 05002KT 15/15 A298 RMK A01 T01540154  RH  100%=      5-min Rain = 0
KME1 161107Z 05002KT 15/15 A298 RMK A01 T01540154  RH  100%=      5-min Rain = 0
KME1 161108Z 05002KT 15/15 A298 RMK A01 T01540154  RH  100%=      5-min Rain = 0
KME1 161109Z 05003KT 15/15 A298 RMK A01 T01540154  RH  100%=      5-min Rain = 0
KME1 161110Z 05002KT 15/15 A298 RMK A01 T01540154  RH  100%=      5-min Rain = 0
KME1 161111Z 06002KT 15/15 A298 RMK A01 T01540154  RH  100%=      5-min Rain = 0
KME1 161112Z 05002KT 15/15 A298 RMK A01 T01540154  RH  100%=      5-min Rain = 0
KME1 161113Z 04002KT 15/15 A298 RMK A01 T01540154  RH  100%=      5-min Rain = 0
KME1 161114Z 04002KT 15/15 A298 RMK A01 T01540154  RH  100%=      5-min Rain = 0
KME1 161115Z 04002KT 15/15 A298 RMK A01 T01540154  RH  100%=      5-min Rain = 0
KME1 161116Z 04003KT 15/15 A298 RMK A01 T01540154  RH  100%=      5-min Rain = 0
KME1 161117Z 04003KT 15/16 A298 RMK A01 T01540155  RH  100%=      5-min Rain = 0
KME1 161118Z 05003KT 16/16 A298 RMK A01 T01550155  RH  100%=      5-min Rain = 0
KME1 161119Z 05002KT 16/16 A298 RMK A01 T01550155  RH  100%=      5-min Rain = 0
KME1 161120Z 05002KT 15/16 A298 RMK A01 T01540155  RH  100%=      5-min Rain = 0
KME1 161121Z 04002KT 16/16 A298 RMK A01 T01550155  RH  100%=      5-min Rain = 0
KME1 161122Z 04002KT 16/16 A298 RMK A01 T01550155  RH  100%=      5-min Rain = 0
KME1 161123Z 04002KT 15/15 A298 RMK A01 T01540154  RH  100%=      5-min Rain = 0
KME1 161124Z 03002KT 16/16 A298 RMK A01 T01550155  RH  100%=      5-min Rain = 0
KME1 161125Z 03003KT 15/15 A298 RMK A01 T01540154  RH  100%=      5-min Rain = 0
KME1 161126Z 03004KT 15/15 A298 RMK A01 T01540154  RH  100%=      5-min Rain = 0
KME1 161127Z 03004KT 15/15 A298 RMK A01 T01530153  RH  100%=      5-min Rain = 0
KME1 161128Z 03004KT 15/15 A298 RMK A01 T01520152  RH  100%=      5-min Rain = 0
KME1 161129Z 02004KT 15/15 A298 RMK A01 T01520152  RH  100%=      5-min Rain = 0
KME1 161130Z 02004KT 15/15 A298 RMK A01 T01520152  RH  100%=      5-min Rain = 0
KME1 161131Z 01004KT 15/15 A298 RMK A01 T01510151  RH  100%=      5-min Rain = 0
KME1 161132Z 02004KT 15/15 A298 RMK A01 T01510151  RH  100%=      5-min Rain = 0
KME1 161133Z 02004KT 15/15 A298 RMK A01 T01510151  RH  100%=      5-min Rain = 0
KME1 161134Z 01003KT 15/15 A298 RMK A01 T01510151  RH  100%=      5-min Rain = 0
KME1 161135Z 01004KT 15/15 A298 RMK A01 T01510151  RH  100%=      5-min Rain = 0
KME1 161136Z 01003KT 15/15 A298 RMK A01 T01510151  RH  100%=      5-min Rain = 0
KME1 161137Z 00003KT 15/15 A298 RMK A01 T01500151  RH  100%=      5-min Rain = 0
KME1 161138Z 01003KT 15/15 A298 RMK A01 T01510151  RH  100%=      5-min Rain = 0
KME1 161139Z 01003KT 15/15 A298 RMK A01 T01500151  RH  100%=      5-min Rain = 0
KME1 161140Z 01003KT 15/15 A298 RMK A01 T01500151  RH  100%=      5-min Rain = 0
KME1 161141Z 01003KT 15/15 A298 RMK A01 T01500151  RH  100%=      5-min Rain = 0
KME1 161142Z 01003KT 15/15 A298 RMK A01 T01500150  RH  100%=      5-min Rain = 0
KME1 161143Z 02003KT 15/15 A298 RMK A01 T01500150  RH  100%=      5-min Rain = 0
KME1 161144Z 02003KT 15/15 A2981 RMK A01 T01500150  RH  100%=      5-min Rain = 0
KME1 161145Z 02003KT 15/15 A2981 RMK A01 T01500150  RH  100%=      5-min Rain = 0
KME1 161146Z 01003KT 15/15 A2981 RMK A01 T01490150  RH  100%=      5-min Rain = 0
KME1 161147Z 01003KT 15/15 A2981 RMK A01 T01490150  RH  100%=      5-min Rain = 0
KME1 161148Z 01003KT 15/15 A2981 RMK A01 T01490149  RH  100%=      5-min Rain = 0
KME1 161149Z 01002KT 15/15 A2981 RMK A01 T01500150  RH  100%=      5-min Rain = 0
KME1 161150Z 00003KT 15/15 A2981 RMK A01 T01490150  RH  100%=      5-min Rain = 0
KME1 161151Z 01003KT 15/15 A2981 RMK A01 T01500150  RH  100%=      5-min Rain = 0
KME1 161152Z 00003KT 15/15 A2981 RMK A01 T01500150  RH  100%=      5-min Rain = 0
KME1 161153Z 01003KT 15/15 A2981 RMK A01 T01500150  RH  100%=      5-min Rain = 0
KME1 161154Z 00003KT 15/15 A2981 RMK A01 T01500150  RH  100%=      5-min Rain = 0
KME1 161155Z 01003KT 15/15 A2981 RMK A01 T01500150  RH  100%=      5-min Rain = 0
KME1 161156Z 00003KT 15/15 A2981 RMK A01 T01500150  RH  100%=      5-min Rain = 0
KME1 161157Z 00003KT 15/15 A2981 RMK A01 T01500150  RH  100%=      5-min Rain = 0
KME1 161158Z 00003KT 15/15 A2981 RMK A01 T01500150  RH  100%=      5-min Rain = 0
KME1 161159Z 00003KT 15/15 A2981 RMK A01 T01500150  RH  100%=      5-min Rain = 0
KME1 161200Z 01003KT 15/15 A2981 RMK A01 T01500150  RH  100%=      5-min Rain = 0
KME1 161201Z 01003KT 15/15 A2981 RMK A01 T01500150  RH  100%=      5-min Rain = 0
KME1 161202Z 01003KT 15/15 A2981 RMK A01 T01500150  RH  100%=      5-min Rain = 0
KME1 161203Z 00003KT 15/15 A2981 RMK A01 T01490149  RH  100%=      5-min Rain = 0
KME1 161204Z 00002KT 15/15 A2981 RMK A01 T01490150  RH  100%=      5-min Rain = 0
KME1 161205Z 01002KT 15/15 A2981 RMK A01 T01500150  RH  100%=      5-min Rain = 0
KME1 161206Z 02001KT 15/15 A2981 RMK A01 T01500150  RH  100%=      5-min Rain = 0
KME1 161207Z 02002KT 15/15 A2981 RMK A01 T01500150  RH  100%=      5-min Rain = 0
KME1 161208Z 02001KT 15/15 A2981 RMK A01 T01490150  RH  100%=      5-min Rain = 0
KME1 161209Z 01002KT 15/15 A2981 RMK A01 T01490150  RH  100%=      5-min Rain = 0
KME1 161210Z 01002KT 15/15 A2981 RMK A01 T01500150  RH  100%=      5-min Rain = 0
KME1 161211Z 02001KT 15/15 A2981 RMK A01 T01490150  RH  100%=      5-min Rain = 0
KME1 161212Z 02001KT 15/15 A2981 RMK A01 T01490150  RH  100%=      5-min Rain = 0
KME1 161213Z 04001KT 15/15 A2981 RMK A01 T01490150  RH  100%=      5-min Rain = 0
KME1 161214Z 05002KT 15/15 A2981 RMK A01 T01490150  RH  100%=      5-min Rain = 0
KME1 161215Z 05001KT 15/15 A2981 RMK A01 T01500150  RH  100%=      5-min Rain = 0
KME1 161216Z 05001KT 15/15 A2981 RMK A01 T01490150  RH  100%=      5-min Rain = 0
KME1 161217Z 05001KT 15/15 A2981 RMK A01 T01490149  RH  100%=      5-min Rain = 0
KME1 161218Z 04001KT 15/15 A2981 RMK A01 T01500150  RH  100%=      5-min Rain = 0
KME1 161219Z 05001KT 15/15 A2981 RMK A01 T01500150  RH  100%=      5-min Rain = 0
KME1 161220Z 07001KT 15/15 A2981 RMK A01 T01500150  RH  100%=      5-min Rain = 0
KME1 161221Z 06001KT 15/15 A2981 RMK A01 T01490150  RH  100%=      5-min Rain = 0
KME1 161222Z 06001KT 15/15 A2981 RMK A01 T01490149  RH  100%=      5-min Rain = 0
KME1 161223Z 06001KT 15/15 A2981 RMK A01 T01490149  RH  100%=      5-min Rain = 0
KME1 161224Z 05001KT 15/15 A2981 RMK A01 T01490149  RH  100%=      5-min Rain = 0
KME1 161225Z 05001KT 15/15 A2981 RMK A01 T01490149  RH  100%=      5-min Rain = 0
KME1 161226Z 04001KT 15/15 A2981 RMK A01 T01490149  RH  100%=      5-min Rain = 0
KME1 161227Z 04001KT 15/15 A2981 RMK A01 T01490149  RH  100%=      5-min Rain = 0
KME1 161228Z 04001KT 15/15 A2981 RMK A01 T01490149  RH  100%=      5-min Rain = 0
KME1 161229Z 06001KT 15/15 A2981 RMK A01 T01480149  RH  100%=      5-min Rain = 0
KME1 161230Z 07001KT 15/15 A2981 RMK A01 T01490149  RH  100%=      5-min Rain = 0
KME1 161231Z 09001KT 15/15 A2981 RMK A01 T01490149  RH  100%=      5-min Rain = 0
KME1 161232Z 09002KT 15/15 A2981 RMK A01 T01490149  RH  100%=      5-min Rain = 0
KME1 161233Z 09001KT 15/15 A2981 RMK A01 T01490149  RH  100%=      5-min Rain = 0
KME1 161234Z 09001KT 15/15 A2981 RMK A01 T01490149  RH  100%=      5-min Rain = 0
KME1 161235Z 08001KT 15/15 A298 RMK A01 T01490149  RH  100%=      5-min Rain = 0
KME1 161236Z 09001KT 15/15 A298 RMK A01 T01490149  RH  100%=      5-min Rain = 0
KME1 161237Z 08000KT 15/15 A298 RMK A01 T01490149  RH  100%=      5-min Rain = 0
KME1 161238Z 09001KT 15/15 A298 RMK A01 T01490149  RH  100%=      5-min Rain = 0
KME1 161239Z 09001KT 15/15 A298 RMK A01 T01490149  RH  100%=      5-min Rain = 0
KME1 161240Z 07000KT 15/15 A2981 RMK A01 T01490149  RH  100%=      5-min Rain = 0
KME1 161241Z 09000KT 15/15 A2981 RMK A01 T01490149  RH  100%=      5-min Rain = 0
KME1 161242Z 09000KT 15/15 A2981 RMK A01 T01490149  RH  100%=      5-min Rain = 0
KME1 161243Z 08000KT 15/15 A2981 RMK A01 T01500150  RH  100%=      5-min Rain = 0
KME1 161244Z 07000KT 15/15 A2981 RMK A01 T01500150  RH  100%=      5-min Rain = 0
KME1 161245Z 00000KT 15/15 A2981 RMK A01 T01500150  RH  100%=      5-min Rain = 0
KME1 161246Z 06001KT 15/15 A2981 RMK A01 T01500150  RH  100%=      5-min Rain = 0
KME1 161247Z 06001KT 15/15 A2981 RMK A01 T01500150  RH  100%=      5-min Rain = 0
KME1 161248Z 06001KT 15/15 A2981 RMK A01 T01500150  RH  100%=      5-min Rain = 0
KME1 161249Z 05001KT 15/15 A2981 RMK A01 T01500150  RH  100%=      5-min Rain = 0
KME1 161250Z 05000KT 15/15 A2981 RMK A01 T01500150  RH  100%=      5-min Rain = 0
KME1 161251Z 06001KT 15/15 A2981 RMK A01 T01500150  RH  100%=      5-min Rain = 0
KME1 161252Z 07001KT 15/15 A2981 RMK A01 T01500150  RH  100%=      5-min Rain = 0
KME1 161253Z 08001KT 15/15 A2981 RMK A01 T01490150  RH  100%=      5-min Rain = 0
KME1 161254Z 07000KT 15/15 A2981 RMK A01 T01500150  RH  100%=      5-min Rain = 0
KME1 161255Z 09000KT 15/15 A2981 RMK A01 T01500150  RH  100%=      5-min Rain = 0
KME1 161256Z 00000KT 15/15 A2981 RMK A01 T01500150  RH  100%=      5-min Rain = 0
KME1 161257Z 00000KT 15/15 A2981 RMK A01 T01500150  RH  100%=      5-min Rain = 0
KME1 161258Z 00000KT 15/15 A2981 RMK A01 T01500150  RH  100%=      5-min Rain = 0
KME1 161259Z 00000KT 15/15 A2981 RMK A01 T01500150  RH  100%=      5-min Rain = 0
KME1 161300Z 00000KT 15/15 A2981 RMK A01 T01500151  RH  100%=      5-min Rain = 0
KME1 161301Z 00000KT 15/15 A2981 RMK A01 T01500151  RH  100%=      5-min Rain = 0
KME1 161302Z 00000KT 15/15 A2981 RMK A01 T01500150  RH  100%=      5-min Rain = 0
KME1 161303Z 00000KT 15/15 A2981 RMK A01 T01510151  RH  100%=      5-min Rain = 0
KME1 161304Z 00000KT 15/15 A2981 RMK A01 T01510151  RH  100%=      5-min Rain = 0
KME1 161305Z 00000KT 15/15 A2981 RMK A01 T01510151  RH  100%=      5-min Rain = 0
KME1 161306Z 34000KT 15/15 A2981 RMK A01 T01510151  RH  100%=      5-min Rain = 0
KME1 161307Z 33001KT 15/15 A2981 RMK A01 T01520152  RH  100%=      5-min Rain = 0
KME1 161308Z 33001KT 15/15 A2981 RMK A01 T01510151  RH  100%=      5-min Rain = 0
KME1 161309Z 33001KT 15/15 A2981 RMK A01 T01510152  RH  100%=      5-min Rain = 0
KME1 161310Z 34001KT 15/15 A2981 RMK A01 T01510152  RH  100%=      5-min Rain = 0
KME1 161311Z 33001KT 15/15 A2981 RMK A01 T01520152  RH  100%=      5-min Rain = 0
KME1 161312Z 34001KT 15/15 A2981 RMK A01 T01520152  RH  100%=      5-min Rain = 0
KME1 161313Z 32001KT 15/15 A2981 RMK A01 T01520152  RH  100%=      5-min Rain = 0
KME1 161314Z 32001KT 15/15 A2981 RMK A01 T01520152  RH  100%=      5-min Rain = 0
KME1 161315Z 32000KT 15/15 A2981 RMK A01 T01520152  RH  100%=      5-min Rain = 0
KME1 161316Z 33000KT 15/15 A2981 RMK A01 T01520152  RH  100%=      5-min Rain = 0
KME1 161317Z 00000KT 15/15 A2981 RMK A01 T01520152  RH  100%=      5-min Rain = 0
KME1 161318Z 00000KT 15/15 A2981 RMK A01 T01530153  RH  100%=      5-min Rain = 0
KME1 161319Z 00000KT 15/15 A2981 RMK A01 T01530153  RH  100%=      5-min Rain = 0
KME1 161320Z 00000KT 15/15 A2981 RMK A01 T01530153  RH  100%=      5-min Rain = 0
KME1 161321Z 22000KT 15/15 A2981 RMK A01 T01530153  RH  100%=      5-min Rain = 0
KME1 161322Z 20000KT 15/15 A2981 RMK A01 T01530153  RH  100%=      5-min Rain = 0
KME1 161323Z 18000KT 15/15 A2981 RMK A01 T01530153  RH  100%=      5-min Rain = 0
KME1 161324Z 18000KT 15/15 A2981 RMK A01 T01540154  RH  100%=      5-min Rain = 0
KME1 161325Z 19001KT 15/15 A2981 RMK A01 T01540154  RH  100%=      5-min Rain = 0
KME1 161326Z 19001KT 15/15 A2981 RMK A01 T01540154  RH  100%=      5-min Rain = 0
KME1 161327Z 19001KT 15/15 A2981 RMK A01 T01540154  RH  100%=      5-min Rain = 0
KME1 161328Z 20001KT 15/16 A2981 RMK A01 T01540155  RH  100%=      5-min Rain = 0
KME1 161329Z 19001KT 16/16 A2981 RMK A01 T01550155  RH  100%=      5-min Rain = 0
KME1 161330Z 22001KT 16/16 A2981 RMK A01 T01550155  RH  100%=      5-min Rain = 0
KME1 161331Z 23002KT 16/16 A2982 RMK A01 T01560156  RH  100%=      5-min Rain = 0
KME1 161332Z 23001KT 16/16 A2982 RMK A01 T01560156  RH  100%=      5-min Rain = 0
KME1 161333Z 23001KT 16/16 A2982 RMK A01 T01560156  RH  100%=      5-min Rain = 0
KME1 161334Z 26001KT 16/16 A2982 RMK A01 T01560156  RH  100%=      5-min Rain = 0
KME1 161335Z 26001KT 16/16 A2982 RMK A01 T01570157  RH  100%=      5-min Rain = 0
KME1 161336Z 29001KT 16/16 A2982 RMK A01 T01570157  RH  100%=      5-min Rain = 0
KME1 161337Z 29001KT 16/16 A2982 RMK A01 T01570157  RH  100%=      5-min Rain = 0
KME1 161338Z 28001KT 16/16 A2982 RMK A01 T01570158  RH  100%=      5-min Rain = 0
KME1 161339Z 29001KT 16/16 A2982 RMK A01 T01580158  RH  100%=      5-min Rain = 0
KME1 161340Z 31001KT 16/16 A2982 RMK A01 T01580159  RH  100%=      5-min Rain = 0
KME1 161341Z 29001KT 16/16 A2982 RMK A01 T01580159  RH  100%=      5-min Rain = 0
KME1 161342Z 30001KT 16/16 A2982 RMK A01 T01590159  RH  100%=      5-min Rain = 0
KME1 161343Z 31000KT 16/16 A2982 RMK A01 T01590159  RH  100%=      5-min Rain = 0
KME1 161344Z 00000KT 16/16 A2982 RMK A01 T01590160  RH  100%=      5-min Rain = 0
KME1 161345Z 00000KT 16/16 A2982 RMK A01 T01600160  RH  100%=      5-min Rain = 0
KME1 161346Z 00000KT 16/16 A2982 RMK A01 T01600161  RH  100%=      5-min Rain = 0
KME1 161347Z 00000KT 16/16 A2982 RMK A01 T01610161  RH  100%=      5-min Rain = 0
KME1 161348Z 30000KT 16/16 A2982 RMK A01 T01610161  RH  100%=      5-min Rain = 0
KME1 161349Z 29000KT 16/16 A2982 RMK A01 T01610161  RH  100%=      5-min Rain = 0
KME1 161350Z 31000KT 16/16 A2982 RMK A01 T01610162  RH  100%=      5-min Rain = 0
KME1 161351Z 31001KT 16/16 A2982 RMK A01 T01620162  RH  100%=      5-min Rain = 0
KME1 161352Z 31001KT 16/16 A2982 RMK A01 T01630163  RH  100%=      5-min Rain = 0
KME1 161353Z 32002KT 16/16 A2982 RMK A01 T01630163  RH  100%=      5-min Rain = 0
KME1 161354Z 32003KT 16/16 A2983 RMK A01 T01640164  RH  100%=      5-min Rain = 0
KME1 161355Z 33003KT 16/16 A2983 RMK A01 T01640164  RH  100%=      5-min Rain = 0
KME1 161356Z 32002KT 16/16 A2983 RMK A01 T01640164  RH  100%=      5-min Rain = 0
KME1 161357Z 33002KT 16/16 A2983 RMK A01 T01640164  RH  100%=      5-min Rain = 0
KME1 161358Z 34003KT 16/16 A2983 RMK A01 T01640164  RH  100%=      5-min Rain = 0
KME1 161359Z 34003KT 16/16 A2983 RMK A01 T01640164  RH  100%=      5-min Rain = 0
KME1 161400Z 34005KT 16/16 A2984 RMK A01 T01640164  RH  100%=      5-min Rain = 0
KME1 161401Z 35007KT 17/17 A2984 RMK A01 T01650165  RH  100%=      5-min Rain = 0
KME1 161402Z 35010KT 17/17 A2984 RMK A01 T01660166  RH  100%=      5-min Rain = 0
KME1 161403Z 36011KT 17/17 A2985 RMK A01 T01650166  RH  100%=      5-min Rain = 0
KME1 161404Z 35012KT 17/17 A2985 RMK A01 T01650165  RH  100%=      5-min Rain = 0
KME1 161405Z 36014G24KT 16/16 A2985 RMK A01 T01640164  RH  100%=      5-min Rain = 0
KME1 161406Z 36019KT 16/16 A2986 RMK A01 T01610161  RH  100%=      5-min Rain = 0
KME1 161407Z 36017KT 16/16 A2986 RMK A01 T01580158  RH  100%=      5-min Rain = 0
KME1 161408Z 00012KT 16/16 A2986 RMK A01 T01560157  RH  100%=      5-min Rain = 0
KME1 161409Z 00014KT 16/16 A2986 RMK A01 T01560156  RH  100%=      5-min Rain = 0
KME1 161410Z 36013KT 16/16 A2986 RMK A01 T01560157  RH  100%=      5-min Rain = 0
KME1 161411Z 35011KT 16/16 A2986 RMK A01 T01570157  RH  100%=      5-min Rain = 0
KME1 161412Z 35007KT 16/16 A2986 RMK A01 T01570158  RH  100%=      5-min Rain = 0
KME1 161413Z 36009KT 16/16 A2986 RMK A01 T01590159  RH  100%=      5-min Rain = 0
KME1 161414Z 35008KT 16/16 A2986 RMK A01 T01600160  RH  100%=      5-min Rain = 0
KME1 161415Z 36012KT 16/16 A2986 RMK A01 T01610161  RH  100%=      5-min Rain = 0
KME1 161416Z 35016KT 16/16 A2986 RMK A01 T01640164  RH  100%=      5-min Rain = 0
KME1 161417Z 00015KT 16/16 A2986 RMK A01 T01620162  RH  100%=      5-min Rain = 0
KME1 161418Z 00014KT 16/16 A2986 RMK A01 T01600160  RH  100%=      5-min Rain = 0
KME1 161419Z 00015KT 16/16 A2986 RMK A01 T01580158  RH  100%=      5-min Rain = 0
KME1 161420Z 36011KT 16/16 A2986 RMK A01 T01580158  RH  100%=      5-min Rain = 0
KME1 161421Z 36011KT 16/16 A2986 RMK A01 T01570157  RH  100%=      5-min Rain = 0
KME1 161422Z 36011KT 16/16 A2986 RMK A01 T01570158  RH  100%=      5-min Rain = 0
KME1 161423Z 35011KT 16/16 A2986 RMK A01 T01570157  RH  100%=      5-min Rain = 0
KME1 161424Z 35009KT 16/16 A2986 RMK A01 T01580158  RH  100%=      5-min Rain = 0
KME1 161425Z 34008KT 16/16 A2986 RMK A01 T01590159  RH  100%=      5-min Rain = 0
KME1 161426Z 35006KT 16/16 A2985 RMK A01 T01590159  RH  100%=      5-min Rain = 0
KME1 161427Z 34007KT 16/16 A2985 RMK A01 T01600160  RH  100%=      5-min Rain = 0
KME1 161428Z 33006KT 16/16 A2985 RMK A01 T01600160  RH  100%=      5-min Rain = 0
KME1 161429Z 33006KT 16/16 A2985 RMK A01 T01610161  RH  100%=      5-min Rain = 0
KME1 161430Z 33005KT 16/16 A2986 RMK A01 T01630163  RH  100%=      5-min Rain = 0
KME1 161431Z 34006KT 17/17 A2986 RMK A01 T01650165  RH  100%=      5-min Rain = 0
KME1 161432Z 33006KT 17/17 A2986 RMK A01 T01660166  RH  100%=      5-min Rain = 0
KME1 161433Z 34007KT 17/17 A2985 RMK A01 T01690170  RH  100%=      5-min Rain = 0
KME1 161434Z 35008KT 17/17 A2985 RMK A01 T01690169  RH  100%=      5-min Rain = 0
KME1 161435Z 35006KT 17/17 A2985 RMK A01 T01680168  RH  100%=      5-min Rain = 0
KME1 161436Z 36005KT 17/17 A2985 RMK A01 T01690169  RH  100%=      5-min Rain = 0
KME1 161437Z 00008KT 17/17 A2985 RMK A01 T01710171  RH  100%=      5-min Rain = 0
KME1 161438Z 01008KT 17/17 A2985 RMK A01 T01670167  RH  100%=      5-min Rain = 0
KME1 161439Z 36008KT 16/16 A2985 RMK A01 T01640164  RH  100%=      5-min Rain = 0
KME1 161440Z 35008KT 16/16 A2985 RMK A01 T01640164  RH  100%=      5-min Rain = 0
KME1 161441Z 35009KT 17/17 A2985 RMK A01 T01650165  RH  100%=      5-min Rain = 0
KME1 161442Z 35009KT 16/16 A2985 RMK A01 T01640164  RH  100%=      5-min Rain = 0
KME1 161443Z 00010KT 17/17 A2986 RMK A01 T01650165  RH  100%=      5-min Rain = 0
KME1 161444Z 00009KT 16/16 A2986 RMK A01 T01640164  RH  100%=      5-min Rain = 0
KME1 161445Z 36009KT 16/16 A2986 RMK A01 T01640164  RH  100%=      5-min Rain = 0
KME1 161446Z 36007KT 16/16 A2986 RMK A01 T01640164  RH  100%=      5-min Rain = 0
KME1 161447Z 36006KT 16/16 A2985 RMK A01 T01630163  RH  100%=      5-min Rain = 0
KME1 161448Z 00004KT 16/16 A2985 RMK A01 T01630163  RH  100%=      5-min Rain = 0
KME1 161449Z 36004KT 16/16 A2985 RMK A01 T01640164  RH  100%=      5-min Rain = 0
KME1 161450Z 36003KT 16/16 A2985 RMK A01 T01640164  RH  100%=      5-min Rain = 0
KME1 161451Z 35004KT 16/16 A2985 RMK A01 T01640164  RH  100%=      5-min Rain = 0
KME1 161452Z 00004KT 16/16 A2985 RMK A01 T01630163  RH  100%=      5-min Rain = 0
KME1 161453Z 01004KT 16/16 A2985 RMK A01 T01630163  RH  100%=      5-min Rain = 0
KME1 161454Z 01005KT 16/16 A2985 RMK A01 T01630163  RH  100%=      5-min Rain = 0
KME1 161455Z 00005KT 16/16 A2985 RMK A01 T01640164  RH  100%=      5-min Rain = 0
KME1 161456Z 36005KT 17/17 A2986 RMK A01 T01650165  RH  100%=      5-min Rain = 0
KME1 161457Z 35005KT 16/16 A2986 RMK A01 T01640164  RH  100%=      5-min Rain = 0
KME1 161458Z 34005KT 16/16 A2986 RMK A01 T01640164  RH  100%=      5-min Rain = 0
KME1 161459Z 35005KT 16/16 A2986 RMK A01 T01640164  RH  100%=      5-min Rain = 0
KME1 161500Z 35005KT 16/17 A2986 RMK A01 T01640165  RH  100%=      5-min Rain = 0
KME1 161501Z 36005KT 17/17 A2986 RMK A01 T01650165  RH  100%=      5-min Rain = 0
KME1 161502Z 36005KT 17/17 A2986 RMK A01 T01660166  RH  100%=      5-min Rain = 0
KME1 161503Z 00004KT 17/17 A2986 RMK A01 T01650165  RH  100%=      5-min Rain = 0
KME1 161504Z 36003KT 17/17 A2986 RMK A01 T01650165  RH  100%=      5-min Rain = 0
KME1 161505Z 01003KT 17/17 A2986 RMK A01 T01670167  RH  100%=      5-min Rain = 0
KME1 161506Z 36003KT 17/17 A2986 RMK A01 T01680168  RH  100%=      5-min Rain = 0
KME1 161507Z 36004KT 17/17 A2986 RMK A01 T01710171  RH  100%=      5-min Rain = 0
KME1 161508Z 35004KT 17/17 A2986 RMK A01 T01690169  RH  100%=      5-min Rain = 0
KME1 161509Z 34006KT 17/17 A2986 RMK A01 T01700170  RH  100%=      5-min Rain = 0
KME1 161510Z 34006KT 17/17 A2986 RMK A01 T01690169  RH  100%=      5-min Rain = 0
KME1 161511Z 34005KT 17/17 A2986 RMK A01 T01690169  RH  100%=      5-min Rain = 0
KME1 161512Z 34005KT 17/17 A2986 RMK A01 T01690169  RH  100%=      5-min Rain = 0
KME1 161513Z 34005KT 17/17 A2986 RMK A01 T01690169  RH  100%=      5-min Rain = 0
KME1 161514Z 35004KT 17/17 A2986 RMK A01 T01690169  RH  100%=      5-min Rain = 0
KME1 161515Z 34008KT 17/17 A2986 RMK A01 T01710172  RH  100%=      5-min Rain = 0
KME1 161516Z 35007KT 17/17 A2986 RMK A01 T01710171  RH  100%=      5-min Rain = 0
KME1 161517Z 34006KT 17/17 A2986 RMK A01 T01700170  RH  100%=      5-min Rain = 0
KME1 161518Z 00006KT 17/17 A2986 RMK A01 T01700170  RH  100%=      5-min Rain = 0
KME1 161519Z 35006KT 17/17 A2986 RMK A01 T01700170  RH  100%=      5-min Rain = 0
KME1 161520Z 34007KT 17/17 A2986 RMK A01 T01710171  RH  100%=      5-min Rain = 0
KME1 161521Z 35007KT 17/17 A2986 RMK A01 T01700170  RH  100%=      5-min Rain = 0
KME1 161522Z 35006KT 17/17 A2986 RMK A01 T01690169  RH  100%=      5-min Rain = 0
KME1 161523Z 35006KT 17/17 A2986 RMK A01 T01690169  RH  100%=      5-min Rain = 0
KME1 161524Z 35007KT 17/17 A2986 RMK A01 T01700170  RH  100%=      5-min Rain = 0
KME1 161525Z 34007KT 17/17 A2986 RMK A01 T01700170  RH  100%=      5-min Rain = 0
KME1 161526Z 34006KT 17/17 A2986 RMK A01 T01700170  RH  100%=      5-min Rain = 0
KME1 161527Z 34005KT 17/17 A2986 RMK A01 T01700170  RH  100%=      5-min Rain = 0
KME1 161528Z 33007KT 17/17 A2986 RMK A01 T01720172  RH  100%=      5-min Rain = 0
KME1 161529Z 33006KT 17/17 A2986 RMK A01 T01720172  RH  100%=      5-min Rain = 0
KME1 161530Z 33007KT 17/17 A2986 RMK A01 T01720173  RH  100%=      5-min Rain = 0
KME1 161531Z 33007KT 17/17 A2986 RMK A01 T01720173  RH  100%=      5-min Rain = 0
KME1 161532Z 34007KT 17/17 A2986 RMK A01 T01720173  RH  100%=      5-min Rain = 0
KME1 161533Z 35007KT 17/17 A2986 RMK A01 T01710172  RH  100%=      5-min Rain = 0
KME1 161534Z 34007KT 17/17 A2986 RMK A01 T01720172  RH  100%=      5-min Rain = 0
KME1 161535Z 00007KT 17/17 A2986 RMK A01 T01720172  RH  100%=      5-min Rain = 0
KME1 161536Z 36008KT 17/17 A2986 RMK A01 T01730173  RH  100%=      5-min Rain = 0
KME1 161537Z 35007KT 17/17 A2986 RMK A01 T01730173  RH  100%=      5-min Rain = 0
KME1 161538Z 35008KT 17/17 A2986 RMK A01 T01730173  RH  100%=      5-min Rain = 0
KME1 161539Z 36005KT 17/17 A2986 RMK A01 T01730173  RH  100%=      5-min Rain = 0
KME1 161540Z 01006KT 18/18 A2986 RMK A01 T01760176  RH  100%=      5-min Rain = 0
KME1 161541Z 00007KT 18/18 A2986 RMK A01 T01760176  RH  100%=      5-min Rain = 0
KME1 161542Z 34006KT 18/18 A2986 RMK A01 T01770177  RH  100%=      5-min Rain = 0
KME1 161543Z 33008KT 18/18 A2986 RMK A01 T01780178  RH  100%=      5-min Rain = 0
KME1 161544Z 33008KT 18/18 A2986 RMK A01 T01790179  RH  100%=      5-min Rain = 0
KME1 161545Z 34007KT 18/18 A2986 RMK A01 T01770178  RH  100%=      5-min Rain = 0
KME1 161546Z 34008KT 18/18 A2986 RMK A01 T01770177  RH  100%=      5-min Rain = 0
KME1 161547Z 35008KT 18/18 A2986 RMK A01 T01770178  RH  100%=      5-min Rain = 0
KME1 161548Z 34006KT 18/18 A2986 RMK A01 T01760176  RH  100%=      5-min Rain = 0
KME1 161549Z 00007KT 18/18 A2986 RMK A01 T01770177  RH  100%=      5-min Rain = 0
KME1 161550Z 36008KT 18/18 A2987 RMK A01 T01780178  RH  100%=      5-min Rain = 0
KME1 161551Z 01008KT 18/18 A2987 RMK A01 T01750176  RH  100%=      5-min Rain = 0
KME1 161552Z 01009KT 17/17 A2987 RMK A01 T01740174  RH  100%=      5-min Rain = 0
KME1 161553Z 02009KT 17/17 A2987 RMK A01 T01730173  RH  100%=      5-min Rain = 0
KME1 161554Z 01009KT 17/17 A2987 RMK A01 T01720172  RH  100%=      5-min Rain = 0
KME1 161555Z 02009KT 17/17 A2987 RMK A01 T01710171  RH  100%=      5-min Rain = 0
KME1 161556Z 00008KT 17/17 A2987 RMK A01 T01710171  RH  100%=      5-min Rain = 0
KME1 161557Z 01008KT 17/17 A2987 RMK A01 T01730173  RH  100%=      5-min Rain = 0
KME1 161558Z 02008KT 17/17 A2987 RMK A01 T01720172  RH  100%=      5-min Rain = 0
KME1 161559Z 02008KT 17/17 A2987 RMK A01 T01710171  RH  100%=      5-min Rain = 0
KME1 161600Z 02008KT 17/17 A2987 RMK A01 T01690170  RH  100%=      5-min Rain = 0
KME1 161601Z 03009KT 17/17 A2987 RMK A01 T01680169  RH  100%=      5-min Rain = 0
KME1 161602Z 02009KT 17/17 A2987 RMK A01 T01680169  RH  100%=      5-min Rain = 0
KME1 161603Z 01010KT 17/17 A2987 RMK A01 T01680169  RH  100%=      5-min Rain = 0
KME1 161604Z 01009KT 17/17 A2987 RMK A01 T01690169  RH  100%=      5-min Rain = 0
KME1 161605Z 01010KT 17/17 A2987 RMK A01 T01690169  RH  100%=      5-min Rain = 0
KME1 161606Z 01010KT 17/17 A2987 RMK A01 T01690169  RH  100%=      5-min Rain = 0
KME1 161607Z 01008KT 17/17 A2987 RMK A01 T01690170  RH  100%=      5-min Rain = 0
KME1 161608Z 00008KT 17/17 A2987 RMK A01 T01690169  RH  100%=      5-min Rain = 0
KME1 161609Z 01009KT 17/17 A2987 RMK A01 T01700170  RH  100%=      5-min Rain = 0
KME1 161610Z 02008KT 17/17 A2987 RMK A01 T01690169  RH  100%=      5-min Rain = 0
KME1 161611Z 02009KT 17/17 A2987 RMK A01 T01700170  RH  100%=      5-min Rain = 0
KME1 161612Z 01008KT 17/17 A2987 RMK A01 T01700170  RH  100%=      5-min Rain = 0
KME1 161613Z 01008KT 17/17 A2987 RMK A01 T01700170  RH  100%=      5-min Rain = 0
KME1 161614Z 00007KT 17/17 A2987 RMK A01 T01700171  RH  100%=      5-min Rain = 0
KME1 161615Z 01007KT 17/17 A2987 RMK A01 T01710172  RH  100%=      5-min Rain = 0
KME1 161616Z 02008KT 17/17 A2987 RMK A01 T01710172  RH  100%=      5-min Rain = 0
KME1 161617Z 01007KT 17/17 A2987 RMK A01 T01710171  RH  100%=      5-min Rain = 0
KME1 161618Z 00008KT 17/17 A2987 RMK A01 T01710172  RH  100%=      5-min Rain = 0
KME1 161619Z 01010KT 17/17 A2987 RMK A01 T01710171  RH  100%=      5-min Rain = 0
KME1 161620Z 01009KT 17/17 A2987 RMK A01 T01700170  RH  100%=      5-min Rain = 0
KME1 161621Z 01009KT 17/17 A2987 RMK A01 T01700170  RH  100%=      5-min Rain = 0
KME1 161622Z 01009KT 17/17 A2987 RMK A01 T01700170  RH  100%=      5-min Rain = 0
KME1 161623Z 02007KT 17/17 A2987 RMK A01 T01700170  RH  100%=      5-min Rain = 0
KME1 161624Z 02009KT 17/17 A2987 RMK A01 T01710172  RH  100%=      5-min Rain = 0
KME1 161625Z 01010KT 17/17 A2987 RMK A01 T01710172  RH  100%=      5-min Rain = 0
KME1 161626Z 02008KT 17/17 A2987 RMK A01 T01710171  RH  100%=      5-min Rain = 0
KME1 161627Z 01010KT 17/17 A2987 RMK A01 T01710171  RH  100%=      5-min Rain = 0
KME1 161628Z 02009KT 17/17 A2987 RMK A01 T01700170  RH  100%=      5-min Rain = 0
KME1 161629Z 02009KT 17/17 A2987 RMK A01 T01710171  RH  100%=      5-min Rain = 0
KME1 161630Z 03008KT 17/17 A2987 RMK A01 T01710171  RH  100%=      5-min Rain = 0
KME1 161631Z 01009KT 17/17 A2987 RMK A01 T01710171  RH  100%=      5-min Rain = 0
KME1 161632Z 02008KT 17/17 A2987 RMK A01 T01710171  RH  100%=      5-min Rain = 0
KME1 161633Z 00009KT 17/17 A2987 RMK A01 T01710171  RH  100%=      5-min Rain = 0
KME1 161634Z 01008KT 17/17 A2987 RMK A01 T01720172  RH  100%=      5-min Rain = 0
KME1 161635Z 00009KT 17/17 A2987 RMK A01 T01720172  RH  100%=      5-min Rain = 0
KME1 161636Z 00011KT 17/17 A2987 RMK A01 T01710171  RH  100%=      5-min Rain = 0
KME1 161637Z 01008KT 17/17 A2987 RMK A01 T01700170  RH  100%=      5-min Rain = 0
KME1 161638Z 01008KT 17/17 A2987 RMK A01 T01700170  RH  100%=      5-min Rain = 0
KME1 161639Z 01009KT 17/17 A2987 RMK A01 T01700170  RH  100%=      5-min Rain = 0
KME1 161640Z 36008KT 17/17 A2987 RMK A01 T01700170  RH  100%=      5-min Rain = 0
KME1 161641Z 01008KT 17/17 A2987 RMK A01 T01700170  RH  100%=      5-min Rain = 0
KME1 161642Z 02008KT 17/17 A2987 RMK A01 T01700170  RH  100%=      5-min Rain = 0
KME1 161643Z 00009KT 17/17 A2987 RMK A01 T01700170  RH  100%=      5-min Rain = 0
KME1 161644Z 36008KT 17/17 A2987 RMK A01 T01700170  RH  100%=      5-min Rain = 0
KME1 161645Z 35010KT 17/17 A2987 RMK A01 T01700170  RH  100%=      5-min Rain = 0
KME1 161646Z 36010KT 17/17 A2987 RMK A01 T01700168  RH  099%=      5-min Rain = 0
KME1 161647Z 36009KT 17/17 A2987 RMK A01 T01700168  RH  099%=      5-min Rain = 0
KME1 161648Z 36009KT 17/17 A2987 RMK A01 T01690166  RH  098%=      5-min Rain = 0
KME1 161649Z 00010KT 17/17 A2987 RMK A01 T01690168  RH  099%=      5-min Rain = 0
KME1 161650Z 35007KT 17/17 A2987 RMK A01 T01700168  RH  099%=      5-min Rain = 0
KME1 161651Z 35009KT 17/17 A2987 RMK A01 T01700169  RH  099%=      5-min Rain = 0
KME1 161652Z 34009KT 17/17 A2987 RMK A01 T01700168  RH  099%=      5-min Rain = 0
KME1 161653Z 35010KT 17/17 A2987 RMK A01 T01710168  RH  098%=      5-min Rain = 0
KME1 161654Z 35010KT 17/17 A2987 RMK A01 T01710167  RH  098%=      5-min Rain = 0
KME1 161655Z 34008KT 17/17 A2987 RMK A01 T01710166  RH  097%=      5-min Rain = 0
KME1 161656Z 35009KT 17/17 A2987 RMK A01 T01710169  RH  098%=      5-min Rain = 0
KME1 161657Z 35009KT 17/17 A2987 RMK A01 T01720169  RH  098%=      5-min Rain = 0
KME1 161658Z 35008KT 17/17 A2987 RMK A01 T01730169  RH  098%=      5-min Rain = 0
KME1 161659Z 36008KT 17/17 A2987 RMK A01 T01740170  RH  098%=      5-min Rain = 0
KME1 161700Z 00008KT 18/17 A2987 RMK A01 T01750173  RH  098%=      5-min Rain = 0
KME1 161701Z 00009KT 18/17 A2987 RMK A01 T01760169  RH  096%=      5-min Rain = 0
KME1 161702Z 00007KT 18/17 A2987 RMK A01 T01760167  RH  095%=      5-min Rain = 0
KME1 161703Z 00009KT 18/17 A2987 RMK A01 T01760167  RH  095%=      5-min Rain = 0
KME1 161704Z 36007KT 18/17 A2987 RMK A01 T01750166  RH  094%=      5-min Rain = 0
KME1 161705Z 36006KT 18/17 A2987 RMK A01 T01750165  RH  094%=      5-min Rain = 0
KME1 161706Z 35006KT 17/17 A2987 RMK A01 T01740168  RH  096%=      5-min Rain = 0
KME1 161707Z 00007KT 18/17 A2987 RMK A01 T01750169  RH  096%=      5-min Rain = 0
KME1 161708Z 36007KT 18/17 A2987 RMK A01 T01750167  RH  095%=      5-min Rain = 0
KME1 161709Z 35008KT 18/17 A2987 RMK A01 T01750166  RH  094%=      5-min Rain = 0
KME1 161710Z 36010KT 17/17 A2987 RMK A01 T01740165  RH  094%=      5-min Rain = 0
KME1 161711Z 36008KT 17/16 A2987 RMK A01 T01730164  RH  094%=      5-min Rain = 0
KME1 161712Z 00008KT 17/17 A2987 RMK A01 T01730166  RH  095%=      5-min Rain = 0
KME1 161713Z 00008KT 17/16 A2987 RMK A01 T01720164  RH  095%=      5-min Rain = 0
KME1 161714Z 00008KT 17/17 A2987 RMK A01 T01730167  RH  096%=      5-min Rain = 0
KME1 161715Z 00009KT 17/16 A2987 RMK A01 T01730164  RH  094%=      5-min Rain = 0
KME1 161716Z 35008KT 17/16 A2987 RMK A01 T01740164  RH  094%=      5-min Rain = 0
KME1 161717Z 35008KT 17/17 A2987 RMK A01 T01740165  RH  094%=      5-min Rain = 0
KME1 161718Z 35007KT 18/17 A2987 RMK A01 T01750168  RH  096%=      5-min Rain = 0
KME1 161719Z 34007KT 18/16 A2987 RMK A01 T01760164  RH  093%=      5-min Rain = 0
KME1 161720Z 35008KT 18/16 A2987 RMK A01 T01760162  RH  091%=      5-min Rain = 0
KME1 161721Z 35008KT 18/17 A2987 RMK A01 T01760165  RH  093%=      5-min Rain = 0
KME1 161722Z 36008KT 18/16 A2987 RMK A01 T01770164  RH  092%=      5-min Rain = 0
KME1 161723Z 35009KT 18/16 A2987 RMK A01 T01770163  RH  092%=      5-min Rain = 0
KME1 161724Z 36009KT 18/16 A2987 RMK A01 T01760161  RH  091%=      5-min Rain = 0
KME1 161725Z 36009KT 18/16 A2987 RMK A01 T01750161  RH  091%=      5-min Rain = 0
KME1 161726Z 35008KT 17/16 A2987 RMK A01 T01740164  RH  094%=      5-min Rain = 0
KME1 161727Z 36008KT 17/16 A2987 RMK A01 T01740163  RH  093%=      5-min Rain = 0
KME1 161728Z 34008KT 17/16 A2988 RMK A01 T01740162  RH  092%=      5-min Rain = 0
KME1 161729Z 34009KT 17/16 A2988 RMK A01 T01740162  RH  092%=      5-min Rain = 0
KME1 161730Z 35009KT 17/16 A2988 RMK A01 T01740161  RH  092%=      5-min Rain = 0
KME1 161731Z 34007KT 17/16 A2988 RMK A01 T01740158  RH  090%=      5-min Rain = 0
KME1 161732Z 34007KT 17/16 A2988 RMK A01 T01740161  RH  092%=      5-min Rain = 0
KME1 161733Z 34007KT 18/16 A2988 RMK A01 T01750164  RH  093%=      5-min Rain = 0
KME1 161734Z 34008KT 18/17 A2988 RMK A01 T01760165  RH  094%=      5-min Rain = 0
KME1 161735Z 34011KT 18/16 A2988 RMK A01 T01770162  RH  091%=      5-min Rain = 0
KME1 161736Z 34011KT 18/16 A2988 RMK A01 T01760158  RH  090%=      5-min Rain = 0
KME1 161737Z 34011KT 18/16 A2988 RMK A01 T01750158  RH  090%=      5-min Rain = 0
KME1 161738Z 35009KT 17/16 A2988 RMK A01 T01740160  RH  091%=      5-min Rain = 0
KME1 161739Z 34010KT 18/16 A2988 RMK A01 T01750161  RH  091%=      5-min Rain = 0
KME1 161740Z 34008KT 18/16 A2988 RMK A01 T01760156  RH  088%=      5-min Rain = 0
KME1 161741Z 35007KT 18/16 A2988 RMK A01 T01750159  RH  090%=      5-min Rain = 0
KME1 161742Z 35007KT 18/16 A2987 RMK A01 T01750158  RH  090%=      5-min Rain = 0
KME1 161743Z 35009KT 18/16 A2987 RMK A01 T01770161  RH  091%=      5-min Rain = 0
KME1 161744Z 36008KT 18/16 A2987 RMK A01 T01780160  RH  089%=      5-min Rain = 0
KME1 161745Z 35009KT 18/16 A2987 RMK A01 T01790159  RH  088%=      5-min Rain = 0
KME1 161746Z 34008KT 18/16 A2987 RMK A01 T01780159  RH  088%=      5-min Rain = 0
KME1 161747Z 36011KT 18/16 A2987 RMK A01 T01790159  RH  088%=      5-min Rain = 0
KME1 161748Z 36011KT 18/16 A2987 RMK A01 T01790157  RH  087%=      5-min Rain = 0
KME1 161749Z 36011KT 18/16 A2987 RMK A01 T01780158  RH  088%=      5-min Rain = 0
KME1 161750Z 00010KT 18/16 A2987 RMK A01 T01780156  RH  087%=      5-min Rain = 0
KME1 161751Z 35009KT 18/16 A2987 RMK A01 T01780156  RH  087%=      5-min Rain = 0
KME1 161752Z 34009KT 18/16 A2987 RMK A01 T01790158  RH  087%=      5-min Rain = 0
KME1 161753Z 35011KT 18/15 A2987 RMK A01 T01790154  RH  085%=      5-min Rain = 0
KME1 161754Z 36012KT 18/16 A2987 RMK A01 T01790155  RH  086%=      5-min Rain = 0
KME1 161755Z 35011KT 18/15 A2987 RMK A01 T01780152  RH  085%=      5-min Rain = 0
KME1 161756Z 36011KT 18/16 A2988 RMK A01 T01780155  RH  086%=      5-min Rain = 0
KME1 161757Z 36010KT 18/15 A2988 RMK A01 T01780151  RH  084%=      5-min Rain = 0
KME1 161758Z 35009KT 18/15 A2988 RMK A01 T01780151  RH  084%=      5-min Rain = 0
KME1 161759Z 00009KT 18/15 A2988 RMK A01 T01780152  RH  084%=      5-min Rain = 0
KME1 161800Z 36008KT 18/15 A2988 RMK A01 T01790151  RH  083%=      5-min Rain = 0
KME1 161801Z 34010KT 18/15 A2988 RMK A01 T01790153  RH  085%=      5-min Rain = 0
KME1 161802Z 35009KT 18/15 A2988 RMK A01 T01790149  RH  082%=      5-min Rain = 0
KME1 161803Z 35009KT 18/15 A2988 RMK A01 T01790151  RH  084%=      5-min Rain = 0
KME1 161804Z 33010KT 18/15 A2988 RMK A01 T01790154  RH  085%=      5-min Rain = 0
KME1 161805Z 33011KT 18/15 A2988 RMK A01 T01800152  RH  084%=      5-min Rain = 0
KME1 161806Z 34011KT 18/15 A2988 RMK A01 T01790151  RH  083%=      5-min Rain = 0
KME1 161807Z 34010KT 18/15 A2988 RMK A01 T01780149  RH  083%=      5-min Rain = 0
KME1 161808Z 34007KT 18/15 A2988 RMK A01 T01770153  RH  086%=      5-min Rain = 0
KME1 161809Z 35010KT 18/15 A2987 RMK A01 T01770153  RH  086%=      5-min Rain = 0
KME1 161810Z 35011KT 18/15 A2988 RMK A01 T01780148  RH  083%=      5-min Rain = 0
KME1 161811Z 35011KT 18/15 A2988 RMK A01 T01770148  RH  083%=      5-min Rain = 0
KME1 161812Z 36008KT 18/15 A2988 RMK A01 T01770147  RH  083%=      5-min Rain = 0
KME1 161813Z 36009KT 18/15 A2988 RMK A01 T01770148  RH  083%=      5-min Rain = 0
KME1 161814Z 35009KT 18/15 A2988 RMK A01 T01770149  RH  084%=      5-min Rain = 0
KME1 161815Z 00011KT 18/15 A2988 RMK A01 T01780149  RH  083%=      5-min Rain = 0
KME1 161816Z 36012KT 18/15 A2988 RMK A01 T01780147  RH  082%=      5-min Rain = 0
KME1 161817Z 35010KT 18/15 A2988 RMK A01 T01780147  RH  082%=      5-min Rain = 0
KME1 161818Z 35009KT 18/15 A2988 RMK A01 T01770148  RH  083%=      5-min Rain = 0
KME1 161819Z 35010KT 18/15 A2988 RMK A01 T01780150  RH  084%=      5-min Rain = 0
KME1 161820Z 36012KT 18/15 A2988 RMK A01 T01780147  RH  082%=      5-min Rain = 0
KME1 161821Z 01010KT 18/15 A2988 RMK A01 T01780148  RH  083%=      5-min Rain = 0
KME1 161822Z 01010KT 18/15 A2988 RMK A01 T01770147  RH  082%=      5-min Rain = 0
KME1 161823Z 01011KT 18/15 A2988 RMK A01 T01770147  RH  083%=      5-min Rain = 0
KME1 161824Z 01011KT 18/15 A2988 RMK A01 T01760146  RH  082%=      5-min Rain = 0
KME1 161825Z 01011KT 18/15 A2988 RMK A01 T01750147  RH  083%=      5-min Rain = 0
KME1 161826Z 01010KT 18/15 A2988 RMK A01 T01750146  RH  083%=      5-min Rain = 0
KME1 161827Z 01013KT 18/15 A2988 RMK A01 T01750145  RH  083%=      5-min Rain = 0
KME1 161828Z 01012KT 17/14 A2988 RMK A01 T01740144  RH  082%=      5-min Rain = 0
KME1 161829Z 01012KT 17/15 A2988 RMK A01 T01740145  RH  083%=      5-min Rain = 0
KME1 161830Z 02013KT 17/14 A2988 RMK A01 T01740143  RH  082%=      5-min Rain = 0
KME1 161831Z 01012KT 17/14 A2988 RMK A01 T01740144  RH  083%=      5-min Rain = 0
KME1 161832Z 01011KT 17/15 A2988 RMK A01 T01740145  RH  083%=      5-min Rain = 0
KME1 161833Z 00011KT 17/15 A2988 RMK A01 T01740145  RH  083%=      5-min Rain = 0
KME1 161834Z 01009KT 17/15 A2988 RMK A01 T01730146  RH  084%=      5-min Rain = 0
KME1 161835Z 00010KT 17/15 A2988 RMK A01 T01730146  RH  084%=      5-min Rain = 0
KME1 161836Z 01008KT 17/15 A2988 RMK A01 T01730146  RH  084%=      5-min Rain = 0
KME1 161837Z 00009KT 17/15 A2988 RMK A01 T01730148  RH  085%=      5-min Rain = 0
KME1 161838Z 35010KT 17/15 A2988 RMK A01 T01730148  RH  085%=      5-min Rain = 0
KME1 161839Z 35012KT 17/14 A2988 RMK A01 T01740144  RH  083%=      5-min Rain = 0
KME1 161840Z 34011KT 17/14 A2988 RMK A01 T01720142  RH  083%=      5-min Rain = 0
KME1 161841Z 34011KT 17/14 A2989 RMK A01 T01700143  RH  084%=      5-min Rain = 0
KME1 161842Z 34012KT 17/14 A2989 RMK A01 T01690141  RH  083%=      5-min Rain = 0
KME1 161843Z 34012KT 17/14 A2989 RMK A01 T01680139  RH  083%=      5-min Rain = 0
KME1 161844Z 34011KT 17/14 A2989 RMK A01 T01670140  RH  084%=      5-min Rain = 0
KME1 161845Z 34011KT 17/14 A2989 RMK A01 T01670140  RH  084%=      5-min Rain = 0
KME1 161846Z 34010KT 17/14 A2989 RMK A01 T01660141  RH  085%=      5-min Rain = 0
KME1 161847Z 35012KT 17/14 A2989 RMK A01 T01660141  RH  085%=      5-min Rain = 0
KME1 161848Z 34011KT 17/14 A2989 RMK A01 T01660140  RH  085%=      5-min Rain = 0
KME1 161849Z 35013KT 17/14 A2989 RMK A01 T01660140  RH  084%=      5-min Rain = 0
KME1 161850Z 34014KT 17/14 A2989 RMK A01 T01650140  RH  085%=      5-min Rain = 0
KME1 161851Z 34010KT 16/14 A2989 RMK A01 T01640139  RH  085%=      5-min Rain = 0
KME1 161852Z 35014KT 16/14 A2989 RMK A01 T01630139  RH  085%=      5-min Rain = 0
KME1 161853Z 35012KT 16/14 A299 RMK A01 T01630139  RH  086%=      5-min Rain = 0
KME1 161854Z 35013KT 16/14 A299 RMK A01 T01620138  RH  085%=      5-min Rain = 0
KME1 161855Z 34013KT 16/14 A299 RMK A01 T01620137  RH  085%=      5-min Rain = 0
KME1 161856Z 35011KT 16/14 A299 RMK A01 T01610138  RH  086%=      5-min Rain = 0
KME1 161857Z 35009KT 16/14 A299 RMK A01 T01610139  RH  086%=      5-min Rain = 0
KME1 161858Z 35011KT 16/14 A299 RMK A01 T01610140  RH  087%=      5-min Rain = 0
KME1 161859Z 36012KT 16/14 A299 RMK A01 T01610137  RH  086%=      5-min Rain = 0
KME1 161900Z 36013KT 16/14 A299 RMK A01 T01600135  RH  085%=      5-min Rain = 0
KME1 161901Z 00012KT 16/14 A299 RMK A01 T01590136  RH  086%=      5-min Rain = 0
KME1 161902Z 36012KT 16/14 A299 RMK A01 T01590135  RH  086%=      5-min Rain = 0
KME1 161903Z 36011KT 16/14 A299 RMK A01 T01590136  RH  086%=      5-min Rain = 0
KME1 161904Z 00009KT 16/14 A299 RMK A01 T01590136  RH  086%=      5-min Rain = 0
KME1 161905Z 35007KT 16/14 A299 RMK A01 T01590138  RH  087%=      5-min Rain = 0
KME1 161906Z 35008KT 16/14 A299 RMK A01 T01610137  RH  086%=      5-min Rain = 0
KME1 161907Z 34011KT 16/13 A299 RMK A01 T01610134  RH  084%=      5-min Rain = 0
KME1 161908Z 34010KT 16/13 A299 RMK A01 T01600133  RH  084%=      5-min Rain = 0
KME1 161909Z 34009KT 16/13 A299 RMK A01 T01590132  RH  084%=      5-min Rain = 0
KME1 161910Z 34010KT 16/13 A299 RMK A01 T01590133  RH  085%=      5-min Rain = 0
KME1 161911Z 34009KT 16/13 A299 RMK A01 T01590132  RH  084%=      5-min Rain = 0
KME1 161912Z 00009KT 16/13 A299 RMK A01 T01590133  RH  085%=      5-min Rain = 0
KME1 161913Z 35010KT 16/14 A299 RMK A01 T01600135  RH  085%=      5-min Rain = 0
KME1 161914Z 35009KT 16/13 A299 RMK A01 T01610132  RH  083%=      5-min Rain = 0
KME1 161915Z 35010KT 16/13 A299 RMK A01 T01610132  RH  083%=      5-min Rain = 0
KME1 161916Z 35009KT 16/13 A299 RMK A01 T01610132  RH  083%=      5-min Rain = 0
KME1 161917Z 34009KT 16/13 A299 RMK A01 T01600133  RH  084%=      5-min Rain = 0
KME1 161918Z 33010KT 16/13 A299 RMK A01 T01610131  RH  083%=      5-min Rain = 0
KME1 161919Z 34010KT 16/13 A299 RMK A01 T01600131  RH  083%=      5-min Rain = 0
KME1 161920Z 35008KT 16/13 A299 RMK A01 T01590131  RH  083%=      5-min Rain = 0
KME1 161921Z 35008KT 16/13 A299 RMK A01 T01590132  RH  084%=      5-min Rain = 0
KME1 161922Z 35010KT 16/13 A299 RMK A01 T01590132  RH  084%=      5-min Rain = 0
KME1 161923Z 34011KT 16/13 A299 RMK A01 T01590131  RH  083%=      5-min Rain = 0
KME1 161924Z 35008KT 16/13 A299 RMK A01 T01590131  RH  083%=      5-min Rain = 0
KME1 161925Z 34008KT 16/13 A299 RMK A01 T01600132  RH  083%=      5-min Rain = 0
KME1 161926Z 34010KT 16/13 A299 RMK A01 T01610130  RH  082%=      5-min Rain = 0
KME1 161927Z 34011KT 16/13 A299 RMK A01 T01610131  RH  082%=      5-min Rain = 0
KME1 161928Z 34009KT 16/13 A2991 RMK A01 T01600130  RH  082%=      5-min Rain = 0
KME1 161929Z 33010KT 16/13 A2991 RMK A01 T01600129  RH  082%=      5-min Rain = 0
KME1 161930Z 33011KT 16/13 A2991 RMK A01 T01600129  RH  082%=      5-min Rain = 0
KME1 161931Z 33010KT 16/13 A2991 RMK A01 T01590128  RH  082%=      5-min Rain = 0
KME1 161932Z 35010KT 16/13 A2991 RMK A01 T01590129  RH  082%=      5-min Rain = 0
KME1 161933Z 35008KT 16/13 A2991 RMK A01 T01590127  RH  081%=      5-min Rain = 0
KME1 161934Z 36008KT 16/13 A2991 RMK A01 T01600129  RH  082%=      5-min Rain = 0
KME1 161935Z 36008KT 16/13 A2991 RMK A01 T01610129  RH  081%=      5-min Rain = 0
KME1 161936Z 35009KT 16/13 A299 RMK A01 T01620128  RH  080%=      5-min Rain = 0
KME1 161937Z 36007KT 16/13 A299 RMK A01 T01620129  RH  081%=      5-min Rain = 0
KME1 161938Z 36008KT 17/13 A2991 RMK A01 T01650132  RH  081%=      5-min Rain = 0
KME1 161939Z 35010KT 17/13 A2991 RMK A01 T01660129  RH  079%=      5-min Rain = 0
KME1 161940Z 01009KT 17/13 A299 RMK A01 T01660128  RH  078%=      5-min Rain = 0
KME1 161941Z 02011KT 17/13 A299 RMK A01 T01660126  RH  078%=      5-min Rain = 0
KME1 161942Z 01010KT 16/13 A299 RMK A01 T01640125  RH  078%=      5-min Rain = 0
KME1 161943Z 00008KT 16/13 A299 RMK A01 T01640125  RH  078%=      5-min Rain = 0
KME1 161944Z 35010KT 17/13 A299 RMK A01 T01650127  RH  078%=      5-min Rain = 0
KME1 161945Z 35011KT 17/13 A299 RMK A01 T01650125  RH  077%=      5-min Rain = 0
KME1 161946Z 01011KT 17/13 A299 RMK A01 T01650127  RH  078%=      5-min Rain = 0
KME1 161947Z 01012KT 17/13 A299 RMK A01 T01660126  RH  077%=      5-min Rain = 0
KME1 161948Z 00008G13KT 17/13 A299 RMK A01 T01650127  RH  078%=      5-min Rain = 0
KME1 161949Z 01011KT 17/13 A299 RMK A01 T01670128  RH  078%=      5-min Rain = 0
KME1 161950Z 01012KT 17/13 A299 RMK A01 T01680126  RH  076%=      5-min Rain = 0
KME1 161951Z 36013KT 17/13 A299 RMK A01 T01680125  RH  076%=      5-min Rain = 0
KME1 161952Z 00011KT 17/13 A299 RMK A01 T01670125  RH  076%=      5-min Rain = 0
KME1 161953Z 01011KT 17/13 A299 RMK A01 T01660126  RH  077%=      5-min Rain = 0
KME1 161954Z 02013KT 17/12 A299 RMK A01 T01660124  RH  076%=      5-min Rain = 0
KME1 161955Z 36012KT 17/12 A299 RMK A01 T01660124  RH  076%=      5-min Rain = 0
KME1 161956Z 36012KT 17/12 A299 RMK A01 T01660124  RH  076%=      5-min Rain = 0
KME1 161957Z 35012KT 17/13 A299 RMK A01 T01660125  RH  076%=      5-min Rain = 0
KME1 161958Z 35012KT 17/12 A299 RMK A01 T01670124  RH  076%=      5-min Rain = 0
KME1 161959Z 36012KT 17/13 A299 RMK A01 T01670125  RH  076%=      5-min Rain = 0
KME1 162000Z 01012KT 17/13 A299 RMK A01 T01680126  RH  076%=      5-min Rain = 0
KME1 162001Z 35013KT 17/13 A299 RMK A01 T01700128  RH  076%=      5-min Rain = 0
KME1 162002Z 36013KT 17/13 A299 RMK A01 T01710126  RH  075%=      5-min Rain = 0
KME1 162003Z 00013KT 17/12 A299 RMK A01 T01700124  RH  074%=      5-min Rain = 0
KME1 162004Z 00014KT 17/12 A299 RMK A01 T01680123  RH  075%=      5-min Rain = 0
KME1 162005Z 35015KT 17/12 A299 RMK A01 T01660123  RH  076%=      5-min Rain = 0
KME1 162006Z 36014KT 17/12 A299 RMK A01 T01650121  RH  075%=      5-min Rain = 0
KME1 162007Z 36015KT 16/12 A299 RMK A01 T01630120  RH  076%=      5-min Rain = 0
KME1 162008Z 01016KT 16/12 A299 RMK A01 T01620119  RH  075%=      5-min Rain = 0
KME1 162009Z 01014G19KT 16/12 A299 RMK A01 T01610120  RH  076%=      5-min Rain = 0
KME1 162010Z 01015KT 16/12 A299 RMK A01 T01610120  RH  077%=      5-min Rain = 0
KME1 162011Z 36014KT 16/12 A299 RMK A01 T01620120  RH  076%=      5-min Rain = 0
KME1 162012Z 00012KT 16/12 A299 RMK A01 T01620121  RH  076%=      5-min Rain = 0
KME1 162013Z 01012G18KT 16/12 A299 RMK A01 T01630120  RH  076%=      5-min Rain = 0
KME1 162014Z 01016KT 16/12 A299 RMK A01 T01640120  RH  075%=      5-min Rain = 0
KME1 162015Z 00013KT 16/12 A299 RMK A01 T01640120  RH  075%=      5-min Rain = 0
KME1 162016Z 00013KT 16/12 A299 RMK A01 T01640119  RH  075%=      5-min Rain = 0
KME1 162017Z 36011KT 16/12 A299 RMK A01 T01640120  RH  075%=      5-min Rain = 0
KME1 162018Z 36013KT 16/12 A299 RMK A01 T01640120  RH  075%=      5-min Rain = 0
KME1 162019Z 00010KT 16/12 A299 RMK A01 T01630120  RH  076%=      5-min Rain = 0
KME1 162020Z 00011KT 16/12 A299 RMK A01 T01620120  RH  076%=      5-min Rain = 0
KME1 162021Z 00010KT 16/12 A299 RMK A01 T01610120  RH  076%=      5-min Rain = 0
KME1 162022Z 35013KT 16/12 A299 RMK A01 T01620121  RH  077%=      5-min Rain = 0
KME1 162023Z 35012KT 16/12 A299 RMK A01 T01610119  RH  076%=      5-min Rain = 0
KME1 162024Z 01012KT 16/12 A299 RMK A01 T01600119  RH  077%=      5-min Rain = 0
KME1 162025Z 36012KT 16/12 A299 RMK A01 T01600120  RH  077%=      5-min Rain = 0
KME1 162026Z 00014KT 16/12 A299 RMK A01 T01600119  RH  077%=      5-min Rain = 0
KME1 162027Z 35010KT 16/12 A299 RMK A01 T01590120  RH  078%=      5-min Rain = 0
KME1 162028Z 35013KT 16/12 A299 RMK A01 T01590118  RH  077%=      5-min Rain = 0
KME1 162029Z 35013KT 16/12 A299 RMK A01 T01580117  RH  076%=      5-min Rain = 0
KME1 162030Z 01014KT 16/12 A299 RMK A01 T01570117  RH  077%=      5-min Rain = 0
KME1 162031Z 02012KT 16/12 A299 RMK A01 T01570117  RH  077%=      5-min Rain = 0
KME1 162032Z 00011KT 16/12 A299 RMK A01 T01570118  RH  077%=      5-min Rain = 0
KME1 162033Z 00013KT 16/12 A299 RMK A01 T01570117  RH  077%=      5-min Rain = 0
KME1 162034Z 36012KT 16/12 A299 RMK A01 T01570116  RH  077%=      5-min Rain = 0
KME1 162035Z 35012KT 16/12 A299 RMK A01 T01570115  RH  076%=      5-min Rain = 0
KME1 162036Z 35012KT 16/12 A299 RMK A01 T01560116  RH  077%=      5-min Rain = 0
KME1 162037Z 36013KT 16/12 A299 RMK A01 T01560115  RH  077%=      5-min Rain = 0
KME1 162038Z 36014KT 16/12 A299 RMK A01 T01560115  RH  077%=      5-min Rain = 0
KME1 162039Z 35013KT 16/12 A299 RMK A01 T01570115  RH  076%=      5-min Rain = 0
KME1 162040Z 35012KT 16/12 A299 RMK A01 T01570115  RH  076%=      5-min Rain = 0
KME1 162041Z 00013KT 16/12 A299 RMK A01 T01570115  RH  076%=      5-min Rain = 0
KME1 162042Z 35012KT 16/12 A299 RMK A01 T01560115  RH  076%=      5-min Rain = 0
KME1 162043Z 00012KT 16/12 A299 RMK A01 T01580115  RH  076%=      5-min Rain = 0
KME1 162044Z 01011KT 16/12 A299 RMK A01 T01590116  RH  075%=      5-min Rain = 0
KME1 162045Z 01013KT 16/11 A2991 RMK A01 T01600113  RH  074%=      5-min Rain = 0
KME1 162046Z 00011KT 16/11 A2991 RMK A01 T01600112  RH  073%=      5-min Rain = 0
KME1 162047Z 00010KT 16/11 A2991 RMK A01 T01610113  RH  073%=      5-min Rain = 0
KME1 162048Z 01015KT 16/11 A2991 RMK A01 T01620114  RH  073%=      5-min Rain = 0
KME1 162049Z 01016KT 16/11 A2991 RMK A01 T01610110  RH  071%=      5-min Rain = 0
KME1 162050Z 02014KT 16/11 A2991 RMK A01 T01590109  RH  072%=      5-min Rain = 0
KME1 162051Z 01013KT 16/11 A2991 RMK A01 T01590108  RH  072%=      5-min Rain = 0
KME1 162052Z 00015KT 16/11 A2991 RMK A01 T01590108  RH  072%=      5-min Rain = 0
KME1 162053Z 00017KT 16/11 A2991 RMK A01 T01580107  RH  071%=      5-min Rain = 0
KME1 162054Z 00016KT 16/11 A2991 RMK A01 T01580106  RH  072%=      5-min Rain = 0
KME1 162055Z 01015KT 16/11 A2991 RMK A01 T01580106  RH  071%=      5-min Rain = 0
KME1 162056Z 01013KT 16/11 A2991 RMK A01 T01580105  RH  071%=      5-min Rain = 0
KME1 162057Z 01012G17KT 16/11 A2991 RMK A01 T01580107  RH  072%=      5-min Rain = 0
KME1 162058Z 01015KT 16/11 A2991 RMK A01 T01590108  RH  072%=      5-min Rain = 0
KME1 162059Z 01015KT 16/11 A2991 RMK A01 T01590107  RH  071%=      5-min Rain = 0
KME1 162100Z 01015KT 16/11 A2991 RMK A01 T01590107  RH  071%=      5-min Rain = 0
KME1 162101Z 01012KT 16/11 A2991 RMK A01 T01580107  RH  072%=      5-min Rain = 0
KME1 162102Z 00012KT 16/11 A2991 RMK A01 T01580108  RH  072%=      5-min Rain = 0
KME1 162103Z 00012KT 16/11 A2991 RMK A01 T01580108  RH  072%=      5-min Rain = 0
KME1 162104Z 00011KT 16/11 A2991 RMK A01 T01590110  RH  073%=      5-min Rain = 0
KME1 162105Z 00010KT 16/11 A2991 RMK A01 T01600110  RH  072%=      5-min Rain = 0
KME1 162106Z 35012KT 16/11 A2991 RMK A01 T01610111  RH  072%=      5-min Rain = 0
KME1 162107Z 00013KT 16/11 A2991 RMK A01 T01620109  RH  071%=      5-min Rain = 0
KME1 162108Z 01016KT 16/11 A2991 RMK A01 T01610108  RH  071%=      5-min Rain = 0
KME1 162109Z 00014KT 16/11 A2991 RMK A01 T01610108  RH  071%=      5-min Rain = 0
KME1 162110Z 01014KT 16/11 A2991 RMK A01 T01600109  RH  071%=      5-min Rain = 0
KME1 162111Z 01017KT 16/11 A2991 RMK A01 T01600109  RH  071%=      5-min Rain = 0
KME1 162112Z 01014KT 16/11 A2991 RMK A01 T01600108  RH  071%=      5-min Rain = 0
KME1 162113Z 00015KT 16/11 A2991 RMK A01 T01590108  RH  072%=      5-min Rain = 0
KME1 162114Z 00012KT 16/11 A2991 RMK A01 T01590108  RH  072%=      5-min Rain = 0
KME1 162115Z 01015KT 16/11 A2991 RMK A01 T01600110  RH  072%=      5-min Rain = 0
KME1 162116Z 01015KT 16/11 A2992 RMK A01 T01600108  RH  071%=      5-min Rain = 0
KME1 162117Z 01014KT 16/11 A2992 RMK A01 T01600109  RH  072%=      5-min Rain = 0
KME1 162118Z 00014KT 16/11 A2991 RMK A01 T01600109  RH  071%=      5-min Rain = 0
KME1 162119Z 00015KT 16/11 A2991 RMK A01 T01600108  RH  071%=      5-min Rain = 0
KME1 162120Z 00013KT 16/11 A2991 RMK A01 T01600108  RH  071%=      5-min Rain = 0
KME1 162121Z 01015KT 16/11 A2991 RMK A01 T01600108  RH  071%=      5-min Rain = 0
KME1 162122Z 01014KT 16/11 A2991 RMK A01 T01600107  RH  071%=      5-min Rain = 0
KME1 162123Z 00013KT 16/11 A2991 RMK A01 T01600108  RH  071%=      5-min Rain = 0
KME1 162124Z 02013KT 16/11 A2991 RMK A01 T01600108  RH  071%=      5-min Rain = 0
KME1 162125Z 01014KT 16/11 A2991 RMK A01 T01600109  RH  072%=      5-min Rain = 0
KME1 162126Z 01015KT 16/11 A2991 RMK A01 T01590108  RH  071%=      5-min Rain = 0
KME1 162127Z 02013KT 16/11 A2991 RMK A01 T01590109  RH  072%=      5-min Rain = 0
KME1 162128Z 02010KT 16/11 A2991 RMK A01 T01590109  RH  072%=      5-min Rain = 0
KME1 162129Z 00012KT 16/11 A2991 RMK A01 T01590110  RH  073%=      5-min Rain = 0
KME1 162130Z 00015KT 16/11 A2991 RMK A01 T01590108  RH  072%=      5-min Rain = 0
KME1 162131Z 00013KT 16/11 A2991 RMK A01 T01580108  RH  072%=      5-min Rain = 0
KME1 162132Z 01014KT 16/11 A2992 RMK A01 T01570107  RH  072%=      5-min Rain = 0
KME1 162133Z 00014KT 16/11 A2991 RMK A01 T01560105  RH  072%=      5-min Rain = 0
KME1 162134Z 01014KT 16/11 A2991 RMK A01 T01560105  RH  071%=      5-min Rain = 0
KME1 162135Z 00013G18KT 16/10 A2992 RMK A01 T01560103  RH  071%=      5-min Rain = 0
KME1 162136Z 01017KT 16/10 A2992 RMK A01 T01560103  RH  071%=      5-min Rain = 0
KME1 162137Z 01016KT 16/10 A2992 RMK A01 T01560103  RH  071%=      5-min Rain = 0
KME1 162138Z 01017KT 16/10 A2992 RMK A01 T01550102  RH  070%=      5-min Rain = 0
KME1 162139Z 01013G18KT 16/10 A2992 RMK A01 T01550102  RH  070%=      5-min Rain = 0
KME1 162140Z 01015KT 16/10 A2992 RMK A01 T01560102  RH  070%=      5-min Rain = 0
KME1 162141Z 00015KT 16/10 A2992 RMK A01 T01560102  RH  070%=      5-min Rain = 0
KME1 162142Z 01016KT 16/10 A2992 RMK A01 T01560102  RH  070%=      5-min Rain = 0
KME1 162143Z 00016KT 16/10 A2991 RMK A01 T01560102  RH  070%=      5-min Rain = 0
KME1 162144Z 01017KT 16/10 A2991 RMK A01 T01560102  RH  070%=      5-min Rain = 0
KME1 162145Z 01016KT 16/10 A2991 RMK A01 T01560102  RH  070%=      5-min Rain = 0
KME1 162146Z 01017KT 16/10 A2991 RMK A01 T01570102  RH  070%=      5-min Rain = 0
KME1 162147Z 01013KT 16/10 A2991 RMK A01 T01570103  RH  070%=      5-min Rain = 0
KME1 162148Z 00011KT 16/11 A2991 RMK A01 T01590107  RH  071%=      5-min Rain = 0
KME1 162149Z 35017KT 16/11 A2991 RMK A01 T01610105  RH  069%=      5-min Rain = 0
KME1 162150Z 01016KT 16/10 A2991 RMK A01 T01600102  RH  068%=      5-min Rain = 0
KME1 162151Z 01014KT 16/10 A2991 RMK A01 T01580101  RH  069%=      5-min Rain = 0
KME1 162152Z 01013KT 16/10 A2991 RMK A01 T01580103  RH  070%=      5-min Rain = 0
KME1 162153Z 01012KT 16/10 A2992 RMK A01 T01580102  RH  069%=      5-min Rain = 0
KME1 162154Z 01019KT 16/10 A2992 RMK A01 T01580100  RH  069%=      5-min Rain = 0
KME1 162155Z 02018KT 16/10 A2992 RMK A01 T01560097  RH  068%=      5-min Rain = 0
KME1 162156Z 02016KT 16/10 A2992 RMK A01 T01550097  RH  068%=      5-min Rain = 0
KME1 162157Z 02016G21KT 16/10 A2992 RMK A01 T01550097  RH  069%=      5-min Rain = 0
KME1 162158Z 02014G20KT 15/10 A2992 RMK A01 T01540097  RH  069%=      5-min Rain = 0
KME1 162159Z 02014KT 15/10 A2992 RMK A01 T01540098  RH  069%=      5-min Rain = 0
KME1 162200Z 01013KT 16/10 A2992 RMK A01 T01550099  RH  069%=      5-min Rain = 0
KME1 162201Z 02011KT 16/10 A2992 RMK A01 T01570102  RH  070%=      5-min Rain = 0
KME1 162202Z 01013KT 16/10 A2992 RMK A01 T01580100  RH  069%=      5-min Rain = 0
KME1 162203Z 01013KT 16/10 A2992 RMK A01 T01580101  RH  069%=      5-min Rain = 0
KME1 162204Z 01012KT 16/10 A2991 RMK A01 T01580101  RH  069%=      5-min Rain = 0
KME1 162205Z 01011KT 16/10 A2991 RMK A01 T01580101  RH  069%=      5-min Rain = 0
KME1 162206Z 02012KT 16/10 A2991 RMK A01 T01580100  RH  068%=      5-min Rain = 0
KME1 162207Z 02012KT 16/10 A2991 RMK A01 T01570100  RH  069%=      5-min Rain = 0
KME1 162208Z 03014KT 16/10 A2992 RMK A01 T01570098  RH  068%=      5-min Rain = 0
KME1 162209Z 02014KT 16/10 A2992 RMK A01 T01560099  RH  069%=      5-min Rain = 0
KME1 162210Z 03014KT 16/10 A2992 RMK A01 T01560099  RH  068%=      5-min Rain = 0
KME1 162211Z 02012KT 16/10 A2992 RMK A01 T01550099  RH  069%=      5-min Rain = 0
KME1 162212Z 03012KT 16/10 A2992 RMK A01 T01560101  RH  070%=      5-min Rain = 0
KME1 162213Z 03014KT 16/10 A2992 RMK A01 T01570099  RH  069%=      5-min Rain = 0
KME1 162214Z 03014G19KT 16/10 A2992 RMK A01 T01550099  RH  069%=      5-min Rain = 0
KME1 162215Z 03015KT 16/10 A2992 RMK A01 T01550099  RH  069%=      5-min Rain = 0
KME1 162216Z 02015KT 16/10 A2992 RMK A01 T01550099  RH  069%=      5-min Rain = 0
KME1 162217Z 02013KT 15/10 A2991 RMK A01 T01540099  RH  069%=      5-min Rain = 0
KME1 162218Z 03013KT 15/10 A2991 RMK A01 T01540098  RH  069%=      5-min Rain = 0
KME1 162219Z 02014KT 15/10 A2991 RMK A01 T01540098  RH  069%=      5-min Rain = 0
KME1 162220Z 02014KT 16/10 A2991 RMK A01 T01550097  RH  069%=      5-min Rain = 0
KME1 162221Z 02017KT 16/10 A2991 RMK A01 T01550097  RH  068%=      5-min Rain = 0
KME1 162222Z 02015KT 15/10 A2991 RMK A01 T01540096  RH  068%=      5-min Rain = 0
KME1 162223Z 02015KT 15/10 A2991 RMK A01 T01540097  RH  069%=      5-min Rain = 0
KME1 162224Z 02015KT 15/10 A2991 RMK A01 T01540096  RH  068%=      5-min Rain = 0
KME1 162225Z 02012KT 15/10 A2991 RMK A01 T01540096  RH  069%=      5-min Rain = 0
KME1 162226Z 02014KT 15/10 A2991 RMK A01 T01540097  RH  069%=      5-min Rain = 0
KME1 162227Z 03014KT 16/10 A2991 RMK A01 T01550096  RH  068%=      5-min Rain = 0
KME1 162228Z 03013KT 15/10 A2991 RMK A01 T01540096  RH  068%=      5-min Rain = 0
KME1 162229Z 03013G19KT 16/10 A2992 RMK A01 T01550095  RH  068%=      5-min Rain = 0
KME1 162230Z 04015KT 15/09 A2992 RMK A01 T01540094  RH  067%=      5-min Rain = 0
KME1 162231Z 04011KT 16/09 A2992 RMK A01 T01550093  RH  067%=      5-min Rain = 0
KME1 162232Z 04015KT 16/09 A2992 RMK A01 T01550092  RH  066%=      5-min Rain = 0
KME1 162233Z 03016KT 16/09 A2992 RMK A01 T01550092  RH  066%=      5-min Rain = 0
KME1 162234Z 03015KT 16/09 A2992 RMK A01 T01550092  RH  066%=      5-min Rain = 0
KME1 162235Z 04017KT 16/09 A2992 RMK A01 T01550091  RH  066%=      5-min Rain = 0
KME1 162236Z 03016KT 15/09 A2992 RMK A01 T01540091  RH  066%=      5-min Rain = 0
KME1 162237Z 04014KT 15/09 A2992 RMK A01 T01540092  RH  066%=      5-min Rain = 0
KME1 162238Z 04011KT 15/09 A2992 RMK A01 T01540092  RH  067%=      5-min Rain = 0
KME1 162239Z 03013KT 16/09 A2992 RMK A01 T01550093  RH  067%=      5-min Rain = 0
KME1 162240Z 03016KT 16/09 A2992 RMK A01 T01560093  RH  066%=      5-min Rain = 0
KME1 162241Z 02014KT 16/09 A2992 RMK A01 T01550092  RH  066%=      5-min Rain = 0
KME1 162242Z 02015KT 15/09 A2993 RMK A01 T01540093  RH  067%=      5-min Rain = 0
KME1 162243Z 02014KT 15/09 A2993 RMK A01 T01540093  RH  067%=      5-min Rain = 0
KME1 162244Z 01015KT 15/09 A2993 RMK A01 T01540091  RH  066%=      5-min Rain = 0
KME1 162245Z 01013KT 15/09 A2993 RMK A01 T01540093  RH  067%=      5-min Rain = 0
KME1 162246Z 02016KT 16/09 A2993 RMK A01 T01550092  RH  066%=      5-min Rain = 0
KME1 162247Z 03014KT 16/09 A2993 RMK A01 T01550092  RH  066%=      5-min Rain = 0
KME1 162248Z 03012KT 16/09 A2993 RMK A01 T01570093  RH  066%=      5-min Rain = 0
KME1 162249Z 03013KT 16/09 A2993 RMK A01 T01590094  RH  065%=      5-min Rain = 0
KME1 162250Z 03016KT 16/09 A2993 RMK A01 T01610094  RH  064%=      5-min Rain = 0
KME1 162251Z 02013KT 16/09 A2993 RMK A01 T01610094  RH  064%=      5-min Rain = 0
KME1 162252Z 02014KT 16/09 A2993 RMK A01 T01600093  RH  064%=      5-min Rain = 0
KME1 162253Z 01014KT 16/09 A2993 RMK A01 T01580092  RH  064%=      5-min Rain = 0
KME1 162254Z 02015KT 16/09 A2994 RMK A01 T01570091  RH  065%=      5-min Rain = 0
KME1 162255Z 01013KT 16/09 A2994 RMK A01 T01570092  RH  065%=      5-min Rain = 0
KME1 162256Z 01017KT 16/09 A2994 RMK A01 T01580093  RH  065%=      5-min Rain = 0
KME1 162257Z 01015KT 16/09 A2994 RMK A01 T01600092  RH  064%=      5-min Rain = 0
KME1 162258Z 02014KT 16/09 A2994 RMK A01 T01600092  RH  064%=      5-min Rain = 0
KME1 162259Z 02017KT 16/09 A2994 RMK A01 T01600092  RH  064%=      5-min Rain = 0
KME1 162300Z 03013KT 16/09 A2994 RMK A01 T01570090  RH  065%=      5-min Rain = 0
KME1 162301Z 03012KT 16/09 A2994 RMK A01 T01560093  RH  066%=      5-min Rain = 0
KME1 162302Z 03015KT 16/09 A2994 RMK A01 T01580093  RH  065%=      5-min Rain = 0
KME1 162303Z 02014KT 16/09 A2994 RMK A01 T01590093  RH  065%=      5-min Rain = 0
KME1 162304Z 01016KT 16/09 A2994 RMK A01 T01600093  RH  065%=      5-min Rain = 0
KME1 162305Z 02017G22KT 16/09 A2994 RMK A01 T01600092  RH  064%=      5-min Rain = 0
KME1 162306Z 03017KT 16/09 A2994 RMK A01 T01570090  RH  064%=      5-min Rain = 0
KME1 162307Z 03016KT 15/09 A2993 RMK A01 T01530089  RH  065%=      5-min Rain = 0
KME1 162308Z 03016KT 15/09 A2993 RMK A01 T01490087  RH  067%=      5-min Rain = 0
KME1 162309Z 02016KT 15/09 A2994 RMK A01 T01460087  RH  067%=      5-min Rain = 0
KME1 162310Z 02013KT 15/09 A2994 RMK A01 T01450089  RH  069%=      5-min Rain = 0
KME1 162311Z 02015KT 15/09 A2994 RMK A01 T01460089  RH  069%=      5-min Rain = 0
KME1 162312Z 02013KT 15/09 A2994 RMK A01 T01450089  RH  069%=      5-min Rain = 0
KME1 162313Z 02012KT 15/09 A2994 RMK A01 T01450090  RH  069%=      5-min Rain = 0
KME1 162314Z 03013KT 15/09 A2994 RMK A01 T01450089  RH  069%=      5-min Rain = 0
KME1 162315Z 02012KT 15/09 A2994 RMK A01 T01450090  RH  069%=      5-min Rain = 0
KME1 162316Z 02011KT 14/09 A2994 RMK A01 T01440089  RH  069%=      5-min Rain = 0
KME1 162317Z 03011KT 14/09 A2994 RMK A01 T01430089  RH  070%=      5-min Rain = 0
KME1 162318Z 04011KT 14/09 A2994 RMK A01 T01430089  RH  070%=      5-min Rain = 0
KME1 162319Z 03012KT 14/09 A2993 RMK A01 T01430089  RH  070%=      5-min Rain = 0
KME1 162320Z 03011KT 14/09 A2994 RMK A01 T01440089  RH  070%=      5-min Rain = 0
KME1 162321Z 03013KT 14/09 A2994 RMK A01 T01440089  RH  069%=      5-min Rain = 0
KME1 162322Z 02015G20KT 14/09 A2994 RMK A01 T01430089  RH  070%=      5-min Rain = 0
KME1 162323Z 02017KT 14/09 A2994 RMK A01 T01430088  RH  070%=      5-min Rain = 0
KME1 162324Z 03013G19KT 14/09 A2994 RMK A01 T01420088  RH  070%=      5-min Rain = 0
KME1 162325Z 04014KT 14/09 A2993 RMK A01 T01410088  RH  070%=      5-min Rain = 0
KME1 162326Z 03014KT 14/09 A2993 RMK A01 T01410087  RH  070%=      5-min Rain = 0
KME1 162327Z 03013KT 14/09 A2993 RMK A01 T01400088  RH  071%=      5-min Rain = 0
KME1 162328Z 03013KT 14/09 A2993 RMK A01 T01390087  RH  071%=      5-min Rain = 0
KME1 162329Z 04013KT 14/09 A2993 RMK A01 T01390087  RH  071%=      5-min Rain = 0
KME1 162330Z 03016KT 14/09 A2994 RMK A01 T01390088  RH  071%=      5-min Rain = 0
KME1 162331Z 02015KT 14/09 A2994 RMK A01 T01390088  RH  071%=      5-min Rain = 0
KME1 162332Z 01014KT 14/09 A2994 RMK A01 T01380089  RH  072%=      5-min Rain = 0
KME1 162333Z 02015KT 14/09 A2994 RMK A01 T01380090  RH  073%=      5-min Rain = 0
KME1 162334Z 01014KT 14/09 A2994 RMK A01 T01370088  RH  072%=      5-min Rain = 0
KME1 162335Z 02014KT 14/09 A2994 RMK A01 T01360088  RH  073%=      5-min Rain = 0
KME1 162336Z 01012KT 14/09 A2994 RMK A01 T01360089  RH  073%=      5-min Rain = 0
KME1 162337Z 02012KT 14/09 A2994 RMK A01 T01360090  RH  074%=      5-min Rain = 0
KME1 162338Z 02016KT 14/09 A2994 RMK A01 T01370089  RH  072%=      5-min Rain = 0
KME1 162339Z 02016KT 14/09 A2994 RMK A01 T01360087  RH  072%=      5-min Rain = 0
KME1 162340Z 01015KT 14/09 A2994 RMK A01 T01350086  RH  072%=      5-min Rain = 0
KME1 162341Z 02016KT 13/09 A2995 RMK A01 T01340085  RH  072%=      5-min Rain = 0
KME1 162342Z 02016KT 13/09 A2995 RMK A01 T01340085  RH  072%=      5-min Rain = 0
KME1 162343Z 02015KT 13/09 A2995 RMK A01 T01330085  RH  073%=      5-min Rain = 0
KME1 162344Z 03015KT 13/09 A2995 RMK A01 T01330085  RH  072%=      5-min Rain = 0
KME1 162345Z 03013KT 13/09 A2995 RMK A01 T01330085  RH  073%=      5-min Rain = 0
KME1 162346Z 02015KT 13/09 A2996 RMK A01 T01330086  RH  073%=      5-min Rain = 0
KME1 162347Z 01014KT 13/09 A2996 RMK A01 T01320086  RH  074%=      5-min Rain = 0
KME1 162348Z 01015KT 13/09 A2996 RMK A01 T01320086  RH  074%=      5-min Rain = 0
KME1 162349Z 01016KT 13/09 A2996 RMK A01 T01310086  RH  074%=      5-min Rain = 0
KME1 162350Z 01015KT 13/09 A2996 RMK A01 T01300085  RH  074%=      5-min Rain = 0
KME1 162351Z 01012KT 13/09 A2996 RMK A01 T01300086  RH  075%=      5-min Rain = 0
KME1 162352Z 01011G17KT 13/09 A2996 RMK A01 T01290086  RH  075%=      5-min Rain = 0
KME1 162353Z 01013G18KT 13/09 A2996 RMK A01 T01300088  RH  076%=      5-min Rain = 0
KME1 162354Z 01016KT 13/09 A2996 RMK A01 T01310086  RH  074%=      5-min Rain = 0
KME1 162355Z 01016KT 13/09 A2996 RMK A01 T01300085  RH  074%=      5-min Rain = 0
KME1 162356Z 01015KT 13/08 A2996 RMK A01 T01290084  RH  074%=      5-min Rain = 0
KME1 162357Z 02013G18KT 13/08 A2996 RMK A01 T01290084  RH  074%=      5-min Rain = 0
KME1 162358Z 02015KT 13/08 A2996 RMK A01 T01290083  RH  074%=      5-min Rain = 0
KME1 162359Z 02015KT 13/08 A2996 RMK A01 T01280083  RH  074%=      5-min Rain = 0
KME1 170000Z 02015KT 13/08 A2996 RMK A01 T01280082  RH  074%=      5-min Rain = 0
KME1 170001Z 02015KT 13/08 A2997 RMK A01 T01280082  RH  074%=      5-min Rain = 0
KME1 170002Z 02013KT 13/08 A2997 RMK A01 T01270082  RH  074%=      5-min Rain = 0
KME1 170003Z 01017KT 13/08 A2997 RMK A01 T01270082  RH  074%=      5-min Rain = 0
KME1 170004Z 02016KT 13/08 A2996 RMK A01 T01270081  RH  074%=      5-min Rain = 0
KME1 170005Z 01015KT 13/08 A2996 RMK A01 T01260081  RH  074%=      5-min Rain = 0
KME1 170006Z 02012KT 13/08 A2996 RMK A01 T01250081  RH  074%=      5-min Rain = 0
KME1 170007Z 02012KT 13/08 A2996 RMK A01 T01250082  RH  075%=      5-min Rain = 0
KME1 170008Z 02012KT 13/08 A2996 RMK A01 T01250083  RH  075%=      5-min Rain = 0
KME1 170009Z 02011KT 13/08 A2996 RMK A01 T01250083  RH  075%=      5-min Rain = 0
KME1 170010Z 02012KT 13/08 A2996 RMK A01 T01250083  RH  075%=      5-min Rain = 0
KME1 170011Z 02013KT 12/08 A2996 RMK A01 T01240082  RH  076%=      5-min Rain = 0
KME1 170012Z 02012KT 12/08 A2996 RMK A01 T01240082  RH  076%=      5-min Rain = 0
KME1 170013Z 01012KT 12/08 A2996 RMK A01 T01230083  RH  076%=      5-min Rain = 0
KME1 170014Z 01014KT 12/08 A2997 RMK A01 T01230083  RH  076%=      5-min Rain = 0
KME1 170015Z 01016KT 12/08 A2996 RMK A01 T01230082  RH  076%=      5-min Rain = 0
KME1 170016Z 01014KT 12/08 A2996 RMK A01 T01220081  RH  076%=      5-min Rain = 0
KME1 170017Z 01014KT 12/08 A2996 RMK A01 T01210081  RH  076%=      5-min Rain = 0
KME1 170018Z 01012KT 12/08 A2997 RMK A01 T01220082  RH  077%=      5-min Rain = 0
KME1 170019Z 02014G19KT 12/08 A2996 RMK A01 T01220082  RH  077%=      5-min Rain = 0
KME1 170020Z 02014KT 12/08 A2996 RMK A01 T01220080  RH  076%=      5-min Rain = 0
KME1 170021Z 02012KT 12/08 A2996 RMK A01 T01210080  RH  076%=      5-min Rain = 0
KME1 170022Z 03011KT 12/08 A2997 RMK A01 T01210080  RH  076%=      5-min Rain = 0
KME1 170023Z 03014KT 12/08 A2997 RMK A01 T01210079  RH  076%=      5-min Rain = 0
KME1 170024Z 03011KT 12/08 A2997 RMK A01 T01210079  RH  075%=      5-min Rain = 0
KME1 170025Z 03012KT 12/08 A2996 RMK A01 T01200079  RH  076%=      5-min Rain = 0
KME1 170026Z 04011KT 12/08 A2996 RMK A01 T01210079  RH  076%=      5-min Rain = 0
KME1 170027Z 02012KT 12/08 A2996 RMK A01 T01210079  RH  075%=      5-min Rain = 0
KME1 170028Z 03012KT 12/08 A2997 RMK A01 T01200078  RH  075%=      5-min Rain = 0
KME1 170029Z 02012KT 12/08 A2997 RMK A01 T01200078  RH  075%=      5-min Rain = 0
KME1 170030Z 02013KT 12/08 A2997 RMK A01 T01200078  RH  075%=      5-min Rain = 0
KME1 170031Z 03011KT 12/08 A2996 RMK A01 T01200078  RH  075%=      5-min Rain = 0
KME1 170032Z 02012KT 12/08 A2997 RMK A01 T01200078  RH  076%=      5-min Rain = 0
KME1 170033Z 02012KT 12/08 A2997 RMK A01 T01200078  RH  076%=      5-min Rain = 0
KME1 170034Z 02011KT 12/08 A2997 RMK A01 T01190079  RH  076%=      5-min Rain = 0
KME1 170035Z 03009KT 12/08 A2998 RMK A01 T01190079  RH  076%=      5-min Rain = 0
KME1 170036Z 02010KT 12/08 A2998 RMK A01 T01190079  RH  076%=      5-min Rain = 0
KME1 170037Z 02011KT 12/08 A2998 RMK A01 T01190079  RH  076%=      5-min Rain = 0
KME1 170038Z 02012KT 12/08 A2998 RMK A01 T01190078  RH  076%=      5-min Rain = 0
KME1 170039Z 02010KT 12/08 A2998 RMK A01 T01190079  RH  076%=      5-min Rain = 0
KME1 170040Z 02009KT 12/08 A2998 RMK A01 T01190079  RH  077%=      5-min Rain = 0
KME1 170041Z 02011KT 12/08 A2998 RMK A01 T01190080  RH  077%=      5-min Rain = 0
KME1 170042Z 03010KT 12/08 A2998 RMK A01 T01190080  RH  077%=      5-min Rain = 0
KME1 170043Z 03012KT 12/08 A2998 RMK A01 T01190080  RH  077%=      5-min Rain = 0
KME1 170044Z 03012KT 12/08 A2998 RMK A01 T01190078  RH  076%=      5-min Rain = 0
KME1 170045Z 02011KT 12/08 A2998 RMK A01 T01190079  RH  077%=      5-min Rain = 0
KME1 170046Z 03013KT 12/08 A2998 RMK A01 T01190079  RH  077%=      5-min Rain = 0
KME1 170047Z 03013KT 12/08 A2998 RMK A01 T01180078  RH  076%=      5-min Rain = 0
KME1 170048Z 02012KT 12/08 A2998 RMK A01 T01180078  RH  076%=      5-min Rain = 0
KME1 170049Z 02010KT 12/08 A2998 RMK A01 T01180078  RH  077%=      5-min Rain = 0
KME1 170050Z 01013KT 12/08 A2998 RMK A01 T01180078  RH  077%=      5-min Rain = 0
KME1 170051Z 02014KT 12/08 A2998 RMK A01 T01180078  RH  077%=      5-min Rain = 0
KME1 170052Z 02013KT 12/08 A2998 RMK A01 T01180078  RH  077%=      5-min Rain = 0
KME1 170053Z 01015KT 12/08 A2998 RMK A01 T01170078  RH  077%=      5-min Rain = 0
KME1 170054Z 01014KT 12/08 A2998 RMK A01 T01170078  RH  077%=      5-min Rain = 0
KME1 170055Z 02012KT 12/08 A2998 RMK A01 T01170078  RH  077%=      5-min Rain = 0
KME1 170056Z 02009KT 12/08 A2998 RMK A01 T01170078  RH  077%=      5-min Rain = 0
KME1 170057Z 02010KT 12/08 A2998 RMK A01 T01170078  RH  077%=      5-min Rain = 0
KME1 170058Z 02010KT 12/08 A2998 RMK A01 T01170078  RH  077%=      5-min Rain = 0
KME1 170059Z 02014KT 12/08 A2998 RMK A01 T01170078  RH  077%=      5-min Rain = 0
KME1 170100Z 02015KT 12/08 A2998 RMK A01 T01170077  RH  077%=      5-min Rain = 0
KME1 170101Z 02010KT 12/08 A2998 RMK A01 T01160077  RH  077%=      5-min Rain = 0
KME1 170102Z 03011G16KT 12/08 A2998 RMK A01 T01170078  RH  077%=      5-min Rain = 0
KME1 170103Z 03012KT 12/08 A2998 RMK A01 T01160077  RH  077%=      5-min Rain = 0
KME1 170104Z 03011KT 12/08 A2998 RMK A01 T01170078  RH  077%=      5-min Rain = 0
KME1 170105Z 03014KT 12/08 A2998 RMK A01 T01160077  RH  077%=      5-min Rain = 0
KME1 170106Z 03015KT 12/08 A2998 RMK A01 T01160077  RH  077%=      5-min Rain = 0
KME1 170107Z 03014KT 12/08 A2998 RMK A01 T01160077  RH  077%=      5-min Rain = 0
KME1 170108Z 03011KT 12/08 A2998 RMK A01 T01170077  RH  077%=      5-min Rain = 0
KME1 170109Z 02010KT 12/08 A2998 RMK A01 T01160077  RH  077%=      5-min Rain = 0
KME1 170110Z 02010KT 12/08 A2999 RMK A01 T01160078  RH  077%=      5-min Rain = 0
KME1 170111Z 01014KT 12/08 A2999 RMK A01 T01160077  RH  077%=      5-min Rain = 0
KME1 170112Z 02015KT 12/08 A2999 RMK A01 T01160077  RH  077%=      5-min Rain = 0
KME1 170113Z 01013KT 12/08 A2999 RMK A01 T01170077  RH  077%=      5-min Rain = 0
KME1 170114Z 02013KT 12/08 A30 RMK A01 T01160077  RH  077%=      5-min Rain = 0
KME1 170115Z 02012KT 12/08 A30 RMK A01 T01160077  RH  077%=      5-min Rain = 0
KME1 170116Z 02008KT 12/08 A30 RMK A01 T01160077  RH  077%=      5-min Rain = 0
KME1 170117Z 02012KT 12/08 A30 RMK A01 T01160077  RH  077%=      5-min Rain = 0
KME1 170118Z 02013G18KT 12/08 A30 RMK A01 T01160076  RH  076%=      5-min Rain = 0
KME1 170119Z 02013KT 12/08 A30 RMK A01 T01160076  RH  076%=      5-min Rain = 0
KME1 170120Z 02012KT 12/08 A30 RMK A01 T01170076  RH  076%=      5-min Rain = 0
KME1 170121Z 03011KT 12/08 A30 RMK A01 T01160077  RH  077%=      5-min Rain = 0
KME1 170122Z 02011KT 12/08 A30 RMK A01 T01160076  RH  077%=      5-min Rain = 0
KME1 170123Z 02011KT 12/08 A30 RMK A01 T01160076  RH  077%=      5-min Rain = 0
KME1 170124Z 03012KT 12/08 A30 RMK A01 T01160076  RH  077%=      5-min Rain = 0
KME1 170125Z 02011KT 12/08 A30 RMK A01 T01160076  RH  077%=      5-min Rain = 0
KME1 170126Z 03010KT 12/08 A30 RMK A01 T01160077  RH  077%=      5-min Rain = 0
KME1 170127Z 02010KT 12/08 A30 RMK A01 T01160077  RH  077%=      5-min Rain = 0
KME1 170128Z 01013KT 12/08 A30 RMK A01 T01160077  RH  077%=      5-min Rain = 0
KME1 170129Z 02014KT 12/08 A30 RMK A01 T01160076  RH  077%=      5-min Rain = 0
KME1 170130Z 02012KT 12/08 A30 RMK A01 T01160076  RH  076%=      5-min Rain = 0
KME1 170131Z 02012KT 12/08 A30 RMK A01 T01160076  RH  077%=      5-min Rain = 0
KME1 170132Z 03014KT 12/08 A30 RMK A01 T01160076  RH  077%=      5-min Rain = 0
KME1 170133Z 02013KT 12/08 A30 RMK A01 T01160076  RH  076%=      5-min Rain = 0
KME1 170134Z 03015KT 12/08 A30 RMK A01 T01150075  RH  076%=      5-min Rain = 0
KME1 170135Z 03014KT 12/08 A30 RMK A01 T01150075  RH  076%=      5-min Rain = 0
KME1 170136Z 03013KT 12/08 A30 RMK A01 T01160076  RH  077%=      5-min Rain = 0
KME1 170137Z 02012KT 12/08 A30 RMK A01 T01150076  RH  077%=      5-min Rain = 0
KME1 170138Z 02012KT 12/08 A30 RMK A01 T01160076  RH  077%=      5-min Rain = 0
KME1 170139Z 02013KT 12/08 A30 RMK A01 T01150076  RH  077%=      5-min Rain = 0
KME1 170140Z 03012KT 12/08 A30 RMK A01 T01150076  RH  077%=      5-min Rain = 0
KME1 170141Z 02013KT 12/08 A30 RMK A01 T01150076  RH  077%=      5-min Rain = 0
KME1 170142Z 02013KT 12/08 A30 RMK A01 T01150076  RH  077%=      5-min Rain = 0
KME1 170143Z 03011KT 12/08 A30 RMK A01 T01150076  RH  077%=      5-min Rain = 0
KME1 170144Z 02011KT 12/08 A30 RMK A01 T01150077  RH  077%=      5-min Rain = 0
KME1 170145Z 02013KT 12/08 A3001 RMK A01 T01150077  RH  077%=      5-min Rain = 0
KME1 170146Z 02013KT 12/08 A3001 RMK A01 T01150077  RH  077%=      5-min Rain = 0
KME1 170147Z 02011KT 12/08 A3001 RMK A01 T01150077  RH  077%=      5-min Rain = 0
KME1 170148Z 02012KT 12/08 A3001 RMK A01 T01150077  RH  078%=      5-min Rain = 0
KME1 170149Z 02010KT 12/08 A3001 RMK A01 T01150077  RH  078%=      5-min Rain = 0
KME1 170150Z 02009KT 12/08 A3001 RMK A01 T01150077  RH  078%=      5-min Rain = 0
KME1 170151Z 01010KT 12/08 A3001 RMK A01 T01150077  RH  078%=      5-min Rain = 0
KME1 170152Z 02013KT 12/08 A3001 RMK A01 T01150077  RH  078%=      5-min Rain = 0
KME1 170153Z 02013KT 12/08 A3001 RMK A01 T01150076  RH  077%=      5-min Rain = 0
KME1 170154Z 02011KT 12/08 A3002 RMK A01 T01150076  RH  077%=      5-min Rain = 0
KME1 170155Z 02012KT 11/08 A3002 RMK A01 T01140076  RH  077%=      5-min Rain = 0
KME1 170156Z 01013KT 11/08 A3002 RMK A01 T01140076  RH  077%=      5-min Rain = 0
KME1 170157Z 01013KT 12/08 A3002 RMK A01 T01150076  RH  077%=      5-min Rain = 0
KME1 170158Z 01012KT 12/08 A3002 RMK A01 T01150076  RH  077%=      5-min Rain = 0
KME1 170159Z 01010KT 11/08 A3002 RMK A01 T01140076  RH  077%=      5-min Rain = 0
KME1 170200Z 01010KT 12/08 A3003 RMK A01 T01150077  RH  077%=      5-min Rain = 0
KME1 170201Z 01010KT 11/08 A3002 RMK A01 T01140076  RH  077%=      5-min Rain = 0
KME1 170202Z 02012KT 12/08 A3002 RMK A01 T01150077  RH  077%=      5-min Rain = 0
KME1 170203Z 02012KT 12/08 A3002 RMK A01 T01150076  RH  077%=      5-min Rain = 0
KME1 170204Z 02014KT 11/08 A3002 RMK A01 T01140076  RH  077%=      5-min Rain = 0
KME1 170205Z 01012KT 12/08 A3002 RMK A01 T01150075  RH  076%=      5-min Rain = 0
KME1 170206Z 01013KT 12/08 A3002 RMK A01 T01150075  RH  076%=      5-min Rain = 0
KME1 170207Z 02014KT 11/07 A3002 RMK A01 T01140074  RH  076%=      5-min Rain = 0
KME1 170208Z 03011KT 12/07 A3002 RMK A01 T01150074  RH  076%=      5-min Rain = 0
KME1 170209Z 03014KT 12/07 A3002 RMK A01 T01150073  RH  076%=      5-min Rain = 0
KME1 170210Z 02010KT 11/07 A3002 RMK A01 T01140073  RH  076%=      5-min Rain = 0
KME1 170211Z 02009KT 12/07 A3002 RMK A01 T01150073  RH  076%=      5-min Rain = 0
KME1 170212Z 02010KT 11/07 A3002 RMK A01 T01140073  RH  076%=      5-min Rain = 0
KME1 170213Z 02009KT 12/07 A3003 RMK A01 T01150073  RH  075%=      5-min Rain = 0
KME1 170214Z 02010KT 12/07 A3003 RMK A01 T01150073  RH  076%=      5-min Rain = 0
KME1 170215Z 02012KT 11/07 A3003 RMK A01 T01140073  RH  075%=      5-min Rain = 0
KME1 170216Z 02012KT 12/07 A3003 RMK A01 T01150072  RH  075%=      5-min Rain = 0
KME1 170217Z 02012KT 12/07 A3003 RMK A01 T01150072  RH  075%=      5-min Rain = 0
KME1 170218Z 02010KT 12/07 A3003 RMK A01 T01150072  RH  075%=      5-min Rain = 0
KME1 170219Z 03010KT 12/07 A3003 RMK A01 T01150073  RH  075%=      5-min Rain = 0
KME1 170220Z 02011KT 12/07 A3003 RMK A01 T01150073  RH  075%=      5-min Rain = 0
KME1 170221Z 03009KT 12/07 A3003 RMK A01 T01150073  RH  075%=      5-min Rain = 0
KME1 170222Z 03010KT 12/07 A3003 RMK A01 T01150073  RH  075%=      5-min Rain = 0
KME1 170223Z 02011KT 12/07 A3003 RMK A01 T01150072  RH  075%=      5-min Rain = 0
KME1 170224Z 02010KT 12/07 A3003 RMK A01 T01150073  RH  075%=      5-min Rain = 0
KME1 170225Z 02011KT 12/07 A3003 RMK A01 T01150073  RH  075%=      5-min Rain = 0
KME1 170226Z 03010KT 12/07 A3003 RMK A01 T01150073  RH  075%=      5-min Rain = 0
KME1 170227Z 03012KT 12/07 A3003 RMK A01 T01150072  RH  075%=      5-min Rain = 0
KME1 170228Z 03010KT 12/07 A3003 RMK A01 T01150072  RH  075%=      5-min Rain = 0
KME1 170229Z 03011KT 12/07 A3003 RMK A01 T01150073  RH  075%=      5-min Rain = 0
KME1 170230Z 03009KT 12/07 A3003 RMK A01 T01150073  RH  075%=      5-min Rain = 0
KME1 170231Z 03009KT 12/07 A3003 RMK A01 T01150073  RH  075%=      5-min Rain = 0
KME1 170232Z 04009KT 12/07 A3003 RMK A01 T01150073  RH  076%=      5-min Rain = 0
KME1 170233Z 03011KT 12/07 A3003 RMK A01 T01150073  RH  075%=      5-min Rain = 0
KME1 170234Z 03011KT 12/07 A3003 RMK A01 T01150072  RH  075%=      5-min Rain = 0
KME1 170235Z 03011KT 12/07 A3003 RMK A01 T01150072  RH  075%=      5-min Rain = 0
KME1 170236Z 03012KT 11/07 A3003 RMK A01 T01140072  RH  075%=      5-min Rain = 0
KME1 170237Z 03010KT 12/07 A3003 RMK A01 T01150072  RH  075%=      5-min Rain = 0
KME1 170238Z 03010KT 12/07 A3003 RMK A01 T01150072  RH  075%=      5-min Rain = 0
KME1 170239Z 03009KT 11/07 A3003 RMK A01 T01140072  RH  075%=      5-min Rain = 0
KME1 170240Z 02009KT 11/07 A3003 RMK A01 T01130072  RH  076%=      5-min Rain = 0
KME1 170241Z 03008KT 11/07 A3003 RMK A01 T01130072  RH  076%=      5-min Rain = 0
KME1 170242Z 03008KT 11/07 A3003 RMK A01 T01130072  RH  076%=      5-min Rain = 0
KME1 170243Z 03008KT 11/07 A3004 RMK A01 T01120072  RH  076%=      5-min Rain = 0
KME1 170244Z 03009KT 11/07 A3004 RMK A01 T01120072  RH  076%=      5-min Rain = 0
KME1 170245Z 03008KT 11/07 A3004 RMK A01 T01120071  RH  076%=      5-min Rain = 0
KME1 170246Z 03009KT 11/07 A3004 RMK A01 T01120072  RH  076%=      5-min Rain = 0
KME1 170247Z 03007KT 11/07 A3004 RMK A01 T01120072  RH  076%=      5-min Rain = 0
KME1 170248Z 03008KT 11/07 A3004 RMK A01 T01120072  RH  076%=      5-min Rain = 0
KME1 170249Z 03007KT 11/07 A3004 RMK A01 T01120072  RH  076%=      5-min Rain = 0
KME1 170250Z 03007KT 11/07 A3004 RMK A01 T01120072  RH  076%=      5-min Rain = 0
KME1 170251Z 02006KT 11/07 A3004 RMK A01 T01120072  RH  076%=      5-min Rain = 0
KME1 170252Z 03008KT 11/07 A3004 RMK A01 T01120073  RH  077%=      5-min Rain = 0
KME1 170253Z 03007KT 11/07 A3004 RMK A01 T01120072  RH  076%=      5-min Rain = 0
KME1 170254Z 03008KT 11/07 A3004 RMK A01 T01120072  RH  076%=      5-min Rain = 0
KME1 170255Z 03008KT 11/07 A3004 RMK A01 T01120072  RH  076%=      5-min Rain = 0
KME1 170256Z 03006KT 11/07 A3004 RMK A01 T01120072  RH  076%=      5-min Rain = 0
KME1 170257Z 03007KT 11/07 A3004 RMK A01 T01120073  RH  076%=      5-min Rain = 0
KME1 170258Z 03008KT 11/07 A3004 RMK A01 T01120073  RH  077%=      5-min Rain = 0
KME1 170259Z 03008KT 11/07 A3004 RMK A01 T01120072  RH  076%=      5-min Rain = 0
KME1 170300Z 03007KT 11/07 A3004 RMK A01 T01130072  RH  076%=      5-min Rain = 0
KME1 170301Z 03009KT 11/07 A3004 RMK A01 T01130073  RH  076%=      5-min Rain = 0
KME1 170302Z 03008KT 11/07 A3004 RMK A01 T01130072  RH  076%=      5-min Rain = 0
KME1 170303Z 03008KT 11/07 A3004 RMK A01 T01130072  RH  076%=      5-min Rain = 0
KME1 170304Z 03009KT 11/07 A3004 RMK A01 T01130073  RH  076%=      5-min Rain = 0
KME1 170305Z 04007KT 11/07 A3004 RMK A01 T01130073  RH  076%=      5-min Rain = 0
KME1 170306Z 04011KT 11/07 A3004 RMK A01 T01130073  RH  076%=      5-min Rain = 0
KME1 170307Z 03009KT 11/07 A3004 RMK A01 T01130072  RH  076%=      5-min Rain = 0
KME1 170308Z 02009KT 11/07 A3004 RMK A01 T01130072  RH  076%=      5-min Rain = 0
KME1 170309Z 03008KT 11/07 A3005 RMK A01 T01130072  RH  076%=      5-min Rain = 0
KME1 170310Z 03006KT 11/07 A3005 RMK A01 T01130072  RH  076%=      5-min Rain = 0
KME1 170311Z 03007KT 11/07 A3005 RMK A01 T01130073  RH  076%=      5-min Rain = 0
KME1 170312Z 03006KT 11/07 A3005 RMK A01 T01130073  RH  077%=      5-min Rain = 0
KME1 170313Z 03009KT 11/07 A3005 RMK A01 T01130073  RH  077%=      5-min Rain = 0
KME1 170314Z 03008KT 11/07 A3005 RMK A01 T01130073  RH  076%=      5-min Rain = 0
KME1 170315Z 03006KT 11/07 A3005 RMK A01 T01130072  RH  076%=      5-min Rain = 0
KME1 170316Z 04006KT 11/07 A3005 RMK A01 T01130073  RH  077%=      5-min Rain = 0
KME1 170317Z 04008KT 11/07 A3005 RMK A01 T01130073  RH  077%=      5-min Rain = 0
KME1 170318Z 03006KT 11/07 A3005 RMK A01 T01130073  RH  076%=      5-min Rain = 0
KME1 170319Z 04007KT 11/07 A3005 RMK A01 T01130073  RH  077%=      5-min Rain = 0
KME1 170320Z 05007KT 11/07 A3005 RMK A01 T01130073  RH  076%=      5-min Rain = 0
KME1 170321Z 04007KT 11/07 A3005 RMK A01 T01130073  RH  076%=      5-min Rain = 0
KME1 170322Z 04008KT 11/07 A3004 RMK A01 T01130073  RH  077%=      5-min Rain = 0
KME1 170323Z 04007KT 11/07 A3004 RMK A01 T01130073  RH  077%=      5-min Rain = 0
KME1 170324Z 04008KT 11/07 A3004 RMK A01 T01130074  RH  077%=      5-min Rain = 0
KME1 170325Z 04008KT 11/07 A3004 RMK A01 T01130074  RH  077%=      5-min Rain = 0
KME1 170326Z 03008KT 11/07 A3004 RMK A01 T01130074  RH  077%=      5-min Rain = 0
KME1 170327Z 03008KT 11/07 A3004 RMK A01 T01130074  RH  077%=      5-min Rain = 0
KME1 170328Z 03008KT 11/07 A3004 RMK A01 T01130074  RH  077%=      5-min Rain = 0
KME1 170329Z 02008KT 11/08 A3004 RMK A01 T01130075  RH  077%=      5-min Rain = 0
KME1 170330Z 03008KT 11/07 A3004 RMK A01 T01130074  RH  077%=      5-min Rain = 0
KME1 170331Z 02009KT 11/08 A3005 RMK A01 T01130075  RH  077%=      5-min Rain = 0
KME1 170332Z 02009KT 11/07 A3005 RMK A01 T01130074  RH  077%=      5-min Rain = 0
KME1 170333Z 02009KT 11/07 A3005 RMK A01 T01130074  RH  077%=      5-min Rain = 0
KME1 170334Z 02007KT 11/07 A3005 RMK A01 T01130074  RH  077%=      5-min Rain = 0
KME1 170335Z 02007KT 11/07 A3005 RMK A01 T01130074  RH  077%=      5-min Rain = 0
KME1 170336Z 03006KT 11/07 A3005 RMK A01 T01130074  RH  077%=      5-min Rain = 0
KME1 170337Z 02007KT 11/07 A3005 RMK A01 T01130074  RH  077%=      5-min Rain = 0
KME1 170338Z 02007KT 11/07 A3005 RMK A01 T01130074  RH  077%=      5-min Rain = 0
KME1 170339Z 03006KT 11/07 A3005 RMK A01 T01130074  RH  077%=      5-min Rain = 0
KME1 170340Z 03007KT 11/07 A3005 RMK A01 T01130074  RH  077%=      5-min Rain = 0
KME1 170341Z 02007KT 11/07 A3005 RMK A01 T01130074  RH  077%=      5-min Rain = 0
KME1 170342Z 03005KT 11/07 A3005 RMK A01 T01130074  RH  077%=      5-min Rain = 0
KME1 170343Z 03005KT 11/08 A3005 RMK A01 T01130075  RH  078%=      5-min Rain = 0
KME1 170344Z 03006KT 11/08 A3005 RMK A01 T01130075  RH  078%=      5-min Rain = 0
KME1 170345Z 03007KT 11/08 A3005 RMK A01 T01130075  RH  078%=      5-min Rain = 0
KME1 170346Z 03006KT 11/08 A3005 RMK A01 T01130075  RH  078%=      5-min Rain = 0
KME1 170347Z 03007KT 11/08 A3005 RMK A01 T01130075  RH  078%=      5-min Rain = 0
KME1 170348Z 03008KT 11/08 A3005 RMK A01 T01130075  RH  077%=      5-min Rain = 0
KME1 170349Z 03007KT 11/08 A3005 RMK A01 T01130075  RH  078%=      5-min Rain = 0
KME1 170350Z 03006KT 11/08 A3005 RMK A01 T01130076  RH  078%=      5-min Rain = 0
KME1 170351Z 03007KT 11/08 A3005 RMK A01 T01130076  RH  078%=      5-min Rain = 0
KME1 170352Z 03007KT 11/08 A3005 RMK A01 T01130075  RH  078%=      5-min Rain = 0
KME1 170353Z 03005KT 11/08 A3005 RMK A01 T01130075  RH  078%=      5-min Rain = 0
KME1 170354Z 02007KT 11/08 A3006 RMK A01 T01130076  RH  078%=      5-min Rain = 0
KME1 170355Z 02006KT 11/08 A3006 RMK A01 T01130075  RH  078%=      5-min Rain = 0
KME1 170356Z 03006KT 11/08 A3006 RMK A01 T01130075  RH  078%=      5-min Rain = 0
KME1 170357Z 03006KT 11/08 A3005 RMK A01 T01130075  RH  078%=      5-min Rain = 0
KME1 170358Z 03006KT 11/08 A3005 RMK A01 T01130076  RH  078%=      5-min Rain = 0
KME1 170359Z 02007KT 11/08 A3005 RMK A01 T01130076  RH  078%=      5-min Rain = 0
KME1 170400Z 02007KT 11/08 A3005 RMK A01 T01130076  RH  078%=      5-min Rain = 0
KME1 170401Z 02009KT 11/08 A3005 RMK A01 T01130076  RH  078%=      5-min Rain = 0
KME1 170402Z 03008KT 11/08 A3005 RMK A01 T01130075  RH  078%=      5-min Rain = 0
KME1 170403Z 02008KT 11/08 A3005 RMK A01 T01130076  RH  078%=      5-min Rain = 0
KME1 170404Z 02008KT 11/08 A3005 RMK A01 T01130075  RH  078%=      5-min Rain = 0
KME1 170405Z 02008KT 11/08 A3005 RMK A01 T01130076  RH  078%=      5-min Rain = 0
KME1 170406Z 03008KT 11/08 A3005 RMK A01 T01130075  RH  078%=      5-min Rain = 0
KME1 170407Z 03008KT 11/08 A3005 RMK A01 T01130075  RH  078%=      5-min Rain = 0
KME1 170408Z 03006KT 11/08 A3005 RMK A01 T01130075  RH  078%=      5-min Rain = 0
KME1 170409Z 04007KT 11/08 A3005 RMK A01 T01130076  RH  078%=      5-min Rain = 0
KME1 170410Z 02007KT 11/08 A3005 RMK A01 T01130076  RH  078%=      5-min Rain = 0
KME1 170411Z 02006KT 11/08 A3005 RMK A01 T01130076  RH  078%=      5-min Rain = 0
KME1 170412Z 02008KT 11/08 A3006 RMK A01 T01130076  RH  078%=      5-min Rain = 0
KME1 170413Z 02007KT 11/08 A3006 RMK A01 T01130076  RH  078%=      5-min Rain = 0
KME1 170414Z 03006KT 11/08 A3006 RMK A01 T01130075  RH  078%=      5-min Rain = 0
KME1 170415Z 03006KT 11/08 A3006 RMK A01 T01130075  RH  078%=      5-min Rain = 0
KME1 170416Z 03006KT 11/08 A3006 RMK A01 T01130075  RH  077%=      5-min Rain = 0
KME1 170417Z 03006KT 11/08 A3006 RMK A01 T01130075  RH  078%=      5-min Rain = 0
KME1 170418Z 03007KT 11/08 A3006 RMK A01 T01130075  RH  077%=      5-min Rain = 0
KME1 170419Z 03006KT 11/08 A3006 RMK A01 T01130075  RH  077%=      5-min Rain = 0
KME1 170420Z 04007KT 11/08 A3006 RMK A01 T01130075  RH  077%=      5-min Rain = 0
KME1 170421Z 03006KT 11/08 A3006 RMK A01 T01130075  RH  077%=      5-min Rain = 0
KME1 170422Z 03006KT 11/08 A3006 RMK A01 T01130076  RH  078%=      5-min Rain = 0
KME1 170423Z 03006KT 11/08 A3006 RMK A01 T01130075  RH  078%=      5-min Rain = 0
KME1 170424Z 03005KT 11/08 A3006 RMK A01 T01130075  RH  078%=      5-min Rain = 0
KME1 170425Z 04007KT 11/08 A3006 RMK A01 T01130075  RH  078%=      5-min Rain = 0
KME1 170426Z 04006KT 11/08 A3006 RMK A01 T01130075  RH  077%=      5-min Rain = 0
KME1 170427Z 04006KT 11/08 A3006 RMK A01 T01130075  RH  077%=      5-min Rain = 0
KME1 170428Z 04005KT 11/08 A3007 RMK A01 T01130075  RH  077%=      5-min Rain = 0
KME1 170429Z 05005KT 11/08 A3007 RMK A01 T01130075  RH  077%=      5-min Rain = 0
KME1 170430Z 05004KT 11/08 A3007 RMK A01 T01130075  RH  077%=      5-min Rain = 0
KME1 170431Z 04005KT 11/08 A3007 RMK A01 T01130076  RH  078%=      5-min Rain = 0
KME1 170432Z 04005KT 11/08 A3007 RMK A01 T01130076  RH  078%=      5-min Rain = 0
KME1 170433Z 04006KT 11/08 A3007 RMK A01 T01130075  RH  078%=      5-min Rain = 0
KME1 170434Z 03004KT 11/08 A3007 RMK A01 T01130076  RH  078%=      5-min Rain = 0
KME1 170435Z 04006KT 11/08 A3007 RMK A01 T01130076  RH  078%=      5-min Rain = 0
KME1 170436Z 03007KT 11/08 A3007 RMK A01 T01130076  RH  078%=      5-min Rain = 0
KME1 170437Z 04005KT 11/08 A3007 RMK A01 T01130075  RH  077%=      5-min Rain = 0
KME1 170438Z 04007KT 11/08 A3007 RMK A01 T01130076  RH  078%=      5-min Rain = 0
KME1 170439Z 02006KT 11/08 A3007 RMK A01 T01130075  RH  077%=      5-min Rain = 0
KME1 170440Z 04008KT 11/08 A3007 RMK A01 T01130075  RH  077%=      5-min Rain = 0
KME1 170441Z 04006KT 11/08 A3007 RMK A01 T01130075  RH  077%=      5-min Rain = 0
KME1 170442Z 03006KT 11/08 A3007 RMK A01 T01130076  RH  078%=      5-min Rain = 0
KME1 170443Z 04007KT 11/08 A3007 RMK A01 T01130076  RH  078%=      5-min Rain = 0
KME1 170444Z 04006KT 11/08 A3007 RMK A01 T01130076  RH  078%=      5-min Rain = 0
KME1 170445Z 03006KT 11/08 A3007 RMK A01 T01130076  RH  078%=      5-min Rain = 0
KME1 170446Z 03006KT 11/08 A3007 RMK A01 T01130076  RH  078%=      5-min Rain = 0
KME1 170447Z 03007KT 11/08 A3007 RMK A01 T01130076  RH  078%=      5-min Rain = 0
KME1 170448Z 03006KT 11/08 A3007 RMK A01 T01130076  RH  078%=      5-min Rain = 0
KME1 170449Z 02007KT 11/08 A3007 RMK A01 T01130076  RH  078%=      5-min Rain = 0
KME1 170450Z 02006KT 11/08 A3007 RMK A01 T01130075  RH  077%=      5-min Rain = 0
KME1 170451Z 02006KT 11/08 A3007 RMK A01 T01140076  RH  078%=      5-min Rain = 0
KME1 170452Z 03007KT 11/08 A3007 RMK A01 T01140076  RH  077%=      5-min Rain = 0
KME1 170453Z 03008KT 11/08 A3007 RMK A01 T01140075  RH  077%=      5-min Rain = 0
KME1 170454Z 03006KT 11/08 A3007 RMK A01 T01140076  RH  077%=      5-min Rain = 0
KME1 170455Z 03006KT 11/08 A3007 RMK A01 T01140076  RH  078%=      5-min Rain = 0
KME1 170456Z 03008KT 11/08 A3007 RMK A01 T01140076  RH  077%=      5-min Rain = 0
KME1 170457Z 02006KT 11/08 A3007 RMK A01 T01140076  RH  077%=      5-min Rain = 0
KME1 170458Z 02008KT 11/08 A3007 RMK A01 T01140076  RH  078%=      5-min Rain = 0
KME1 170459Z 03009KT 11/08 A3007 RMK A01 T01140075  RH  077%=      5-min Rain = 0

Page generated in 0.0716 seconds.